<?xml version="1.0" encoding="UTF-8"?>
<gpx xmlns="http://www.topografix.com/GPX/1/1" xmlns:xsi="http://www.w3.org/2001/XMLSchema-instance" version="1.1" xsi:schemaLocation="http://www.topografix.com/GPX/1/1 http://www.topografix.com/GPX/1/1/gpx.xsd">
  <metadata>
    <name>Rocky Gap Off-Road Triathlon 2026</name>
  </metadata>
  <trk>
    <name>Rocky Gap Off-Road Triathlon 2026</name>
    <trkseg>
      <trkpt lat="39.700324" lon="-78.653519">
        <ele>361.074266</ele>
        <time>2026-07-12T09:24:08.000Z</time>
      </trkpt>
      <trkpt lat="39.700158" lon="-78.653503">
        <ele>361.074264</ele>
        <time>2026-07-12T09:24:10.000Z</time>
      </trkpt>
      <trkpt lat="39.699759" lon="-78.65343">
        <ele>361.074267</ele>
        <time>2026-07-12T09:24:14.000Z</time>
      </trkpt>
      <trkpt lat="39.699418" lon="-78.653295">
        <ele>361.096832</ele>
        <time>2026-07-12T09:24:18.000Z</time>
      </trkpt>
      <trkpt lat="39.699404" lon="-78.65353">
        <ele>361.228124</ele>
        <time>2026-07-12T09:24:20.000Z</time>
      </trkpt>
      <trkpt lat="39.699353" lon="-78.653533">
        <ele>361.265823</ele>
        <time>2026-07-12T09:24:21.000Z</time>
      </trkpt>
      <trkpt lat="39.699377" lon="-78.653947">
        <ele>361.48232</ele>
        <time>2026-07-12T09:24:25.000Z</time>
      </trkpt>
      <trkpt lat="39.699337" lon="-78.654061">
        <ele>361.555299</ele>
        <time>2026-07-12T09:24:26.000Z</time>
      </trkpt>
      <trkpt lat="39.699275" lon="-78.654199">
        <ele>361.639087</ele>
        <time>2026-07-12T09:24:27.000Z</time>
      </trkpt>
      <trkpt lat="39.699322" lon="-78.654467">
        <ele>361.794373</ele>
        <time>2026-07-12T09:24:29.000Z</time>
      </trkpt>
      <trkpt lat="39.699429" lon="-78.655356">
        <ele>362.275144</ele>
        <time>2026-07-12T09:24:37.000Z</time>
      </trkpt>
      <trkpt lat="39.699406" lon="-78.65558">
        <ele>362.115369</ele>
        <time>2026-07-12T09:24:39.000Z</time>
      </trkpt>
      <trkpt lat="39.699413" lon="-78.655709">
        <ele>361.845548</ele>
        <time>2026-07-12T09:24:40.000Z</time>
      </trkpt>
      <trkpt lat="39.699309" lon="-78.656043">
        <ele>361.139623</ele>
        <time>2026-07-12T09:24:43.000Z</time>
      </trkpt>
      <trkpt lat="39.699245" lon="-78.655995">
        <ele>360.972768</ele>
        <time>2026-07-12T09:24:44.000Z</time>
      </trkpt>
      <trkpt lat="39.699139" lon="-78.656266">
        <ele>360.389449</ele>
        <time>2026-07-12T09:24:47.000Z</time>
      </trkpt>
      <trkpt lat="39.698943" lon="-78.656574">
        <ele>359.575541</ele>
        <time>2026-07-12T09:24:50.000Z</time>
      </trkpt>
      <trkpt lat="39.698644" lon="-78.656922">
        <ele>358.531299</ele>
        <time>2026-07-12T09:24:54.000Z</time>
      </trkpt>
      <trkpt lat="39.698583" lon="-78.656997">
        <ele>358.293522</ele>
        <time>2026-07-12T09:24:55.000Z</time>
      </trkpt>
      <trkpt lat="39.696684" lon="-78.659119">
        <ele>356.999159</ele>
        <time>2026-07-12T09:25:23.000Z</time>
      </trkpt>
      <trkpt lat="39.696627" lon="-78.659209">
        <ele>357.470126</ele>
        <time>2026-07-12T09:25:24.000Z</time>
      </trkpt>
      <trkpt lat="39.69651" lon="-78.659483">
        <ele>358.622248</ele>
        <time>2026-07-12T09:25:27.000Z</time>
      </trkpt>
      <trkpt lat="39.696468" lon="-78.659775">
        <ele>359.714856</ele>
        <time>2026-07-12T09:25:30.000Z</time>
      </trkpt>
      <trkpt lat="39.696506" lon="-78.659967">
        <ele>360.490211</ele>
        <time>2026-07-12T09:25:32.000Z</time>
      </trkpt>
      <trkpt lat="39.696588" lon="-78.660571">
        <ele>362.822956</ele>
        <time>2026-07-12T09:25:37.000Z</time>
      </trkpt>
      <trkpt lat="39.696556" lon="-78.660911">
        <ele>363.873915</ele>
        <time>2026-07-12T09:25:40.000Z</time>
      </trkpt>
      <trkpt lat="39.696436" lon="-78.661365">
        <ele>364.721982</ele>
        <time>2026-07-12T09:25:44.000Z</time>
      </trkpt>
      <trkpt lat="39.696351" lon="-78.661729">
        <ele>365.369554</ele>
        <time>2026-07-12T09:25:47.000Z</time>
      </trkpt>
      <trkpt lat="39.696125" lon="-78.663781">
        <ele>367.811943</ele>
        <time>2026-07-12T09:26:05.000Z</time>
      </trkpt>
      <trkpt lat="39.69612" lon="-78.663863">
        <ele>367.816803</ele>
        <time>2026-07-12T09:26:06.000Z</time>
      </trkpt>
      <trkpt lat="39.696095" lon="-78.663981">
        <ele>367.823168</ele>
        <time>2026-07-12T09:26:07.000Z</time>
      </trkpt>
      <trkpt lat="39.696055" lon="-78.664323">
        <ele>367.843325</ele>
        <time>2026-07-12T09:26:10.000Z</time>
      </trkpt>
      <trkpt lat="39.696381" lon="-78.664385">
        <ele>367.867485</ele>
        <time>2026-07-12T09:26:14.000Z</time>
      </trkpt>
      <trkpt lat="39.696624" lon="-78.664477">
        <ele>367.88668</ele>
        <time>2026-07-12T09:26:17.000Z</time>
      </trkpt>
      <trkpt lat="39.697011" lon="-78.664683">
        <ele>368.017021</ele>
        <time>2026-07-12T09:26:22.000Z</time>
      </trkpt>
      <trkpt lat="39.697167" lon="-78.664742">
        <ele>368.12084</ele>
        <time>2026-07-12T09:26:24.000Z</time>
      </trkpt>
      <trkpt lat="39.697425" lon="-78.664757">
        <ele>368.278628</ele>
        <time>2026-07-12T09:26:27.000Z</time>
      </trkpt>
      <trkpt lat="39.697595" lon="-78.664728">
        <ele>368.389265</ele>
        <time>2026-07-12T09:26:29.000Z</time>
      </trkpt>
      <trkpt lat="39.697785" lon="-78.664665">
        <ele>368.50467</ele>
        <time>2026-07-12T09:26:31.000Z</time>
      </trkpt>
      <trkpt lat="39.69806" lon="-78.66443">
        <ele>368.711303</ele>
        <time>2026-07-12T09:26:35.000Z</time>
      </trkpt>
      <trkpt lat="39.698214" lon="-78.664232">
        <ele>368.837056</ele>
        <time>2026-07-12T09:26:37.000Z</time>
      </trkpt>
      <trkpt lat="39.6983" lon="-78.664071">
        <ele>368.936014</ele>
        <time>2026-07-12T09:26:39.000Z</time>
      </trkpt>
      <trkpt lat="39.698429" lon="-78.663782">
        <ele>368.608673</ele>
        <time>2026-07-12T09:26:42.000Z</time>
      </trkpt>
      <trkpt lat="39.698541" lon="-78.66359">
        <ele>367.951302</ele>
        <time>2026-07-12T09:26:44.000Z</time>
      </trkpt>
      <trkpt lat="39.698704" lon="-78.663354">
        <ele>367.182041</ele>
        <time>2026-07-12T09:26:47.000Z</time>
      </trkpt>
      <trkpt lat="39.698987" lon="-78.663073">
        <ele>365.963262</ele>
        <time>2026-07-12T09:26:51.000Z</time>
      </trkpt>
      <trkpt lat="39.699214" lon="-78.662927">
        <ele>365.119678</ele>
        <time>2026-07-12T09:26:54.000Z</time>
      </trkpt>
      <trkpt lat="39.699432" lon="-78.662839">
        <ele>364.348043</ele>
        <time>2026-07-12T09:26:57.000Z</time>
      </trkpt>
      <trkpt lat="39.6999" lon="-78.662745">
        <ele>362.800726</ele>
        <time>2026-07-12T09:27:02.000Z</time>
      </trkpt>
      <trkpt lat="39.700058" lon="-78.662669">
        <ele>362.339619</ele>
        <time>2026-07-12T09:27:04.000Z</time>
      </trkpt>
      <trkpt lat="39.700226" lon="-78.662381">
        <ele>361.523875</ele>
        <time>2026-07-12T09:27:07.000Z</time>
      </trkpt>
      <trkpt lat="39.700368" lon="-78.662229">
        <ele>361.007861</ele>
        <time>2026-07-12T09:27:09.000Z</time>
      </trkpt>
      <trkpt lat="39.700685" lon="-78.661973">
        <ele>359.885599</ele>
        <time>2026-07-12T09:27:13.000Z</time>
      </trkpt>
      <trkpt lat="39.701155" lon="-78.661765">
        <ele>358.46505</ele>
        <time>2026-07-12T09:27:19.000Z</time>
      </trkpt>
      <trkpt lat="39.701339" lon="-78.661466">
        <ele>357.829755</ele>
        <time>2026-07-12T09:27:22.000Z</time>
      </trkpt>
      <trkpt lat="39.701607" lon="-78.661433">
        <ele>357.900197</ele>
        <time>2026-07-12T09:27:25.000Z</time>
      </trkpt>
      <trkpt lat="39.701661" lon="-78.661439">
        <ele>357.915209</ele>
        <time>2026-07-12T09:27:26.000Z</time>
      </trkpt>
      <trkpt lat="39.701673" lon="-78.661311">
        <ele>357.938547</ele>
        <time>2026-07-12T09:27:27.000Z</time>
      </trkpt>
      <trkpt lat="39.702046" lon="-78.660472">
        <ele>358.139584</ele>
        <time>2026-07-12T09:27:35.000Z</time>
      </trkpt>
      <trkpt lat="39.702099" lon="-78.660418">
        <ele>358.15809</ele>
        <time>2026-07-12T09:27:36.000Z</time>
      </trkpt>
      <trkpt lat="39.702247" lon="-78.660206">
        <ele>358.215963</ele>
        <time>2026-07-12T09:27:38.000Z</time>
      </trkpt>
      <trkpt lat="39.702295" lon="-78.660088">
        <ele>358.244917</ele>
        <time>2026-07-12T09:27:39.000Z</time>
      </trkpt>
      <trkpt lat="39.702423" lon="-78.659928">
        <ele>358.292758</ele>
        <time>2026-07-12T09:27:41.000Z</time>
      </trkpt>
      <trkpt lat="39.702554" lon="-78.65982">
        <ele>358.249699</ele>
        <time>2026-07-12T09:27:43.000Z</time>
      </trkpt>
      <trkpt lat="39.702594" lon="-78.659737">
        <ele>358.226989</ele>
        <time>2026-07-12T09:27:44.000Z</time>
      </trkpt>
      <trkpt lat="39.702844" lon="-78.659503">
        <ele>358.126387</ele>
        <time>2026-07-12T09:27:47.000Z</time>
      </trkpt>
      <trkpt lat="39.702956" lon="-78.659264">
        <ele>358.058968</ele>
        <time>2026-07-12T09:27:49.000Z</time>
      </trkpt>
      <trkpt lat="39.703092" lon="-78.659145">
        <ele>358.001852</ele>
        <time>2026-07-12T09:27:51.000Z</time>
      </trkpt>
      <trkpt lat="39.703241" lon="-78.658938">
        <ele>357.933436</ele>
        <time>2026-07-12T09:27:53.000Z</time>
      </trkpt>
      <trkpt lat="39.703498" lon="-78.658748">
        <ele>357.842021</ele>
        <time>2026-07-12T09:27:56.000Z</time>
      </trkpt>
      <trkpt lat="39.703881" lon="-78.658323">
        <ele>357.706609</ele>
        <time>2026-07-12T09:28:02.000Z</time>
      </trkpt>
      <trkpt lat="39.703918" lon="-78.658193">
        <ele>357.693411</ele>
        <time>2026-07-12T09:28:03.000Z</time>
      </trkpt>
      <trkpt lat="39.704071" lon="-78.657996">
        <ele>357.667213</ele>
        <time>2026-07-12T09:28:05.000Z</time>
      </trkpt>
      <trkpt lat="39.70428" lon="-78.657566">
        <ele>357.618607</ele>
        <time>2026-07-12T09:28:09.000Z</time>
      </trkpt>
      <trkpt lat="39.704427" lon="-78.657345">
        <ele>357.592065</ele>
        <time>2026-07-12T09:28:11.000Z</time>
      </trkpt>
      <trkpt lat="39.704487" lon="-78.657132">
        <ele>357.570145</ele>
        <time>2026-07-12T09:28:13.000Z</time>
      </trkpt>
      <trkpt lat="39.704482" lon="-78.656892">
        <ele>357.548035</ele>
        <time>2026-07-12T09:28:15.000Z</time>
      </trkpt>
      <trkpt lat="39.70449" lon="-78.656753">
        <ele>357.534852</ele>
        <time>2026-07-12T09:28:16.000Z</time>
      </trkpt>
      <trkpt lat="39.704615" lon="-78.656587">
        <ele>357.51296</ele>
        <time>2026-07-12T09:28:18.000Z</time>
      </trkpt>
      <trkpt lat="39.70514" lon="-78.655207">
        <ele>359.183868</ele>
        <time>2026-07-12T09:28:31.000Z</time>
      </trkpt>
      <trkpt lat="39.705262" lon="-78.655022">
        <ele>359.461289</ele>
        <time>2026-07-12T09:28:33.000Z</time>
      </trkpt>
      <trkpt lat="39.705372" lon="-78.654926">
        <ele>359.681762</ele>
        <time>2026-07-12T09:28:34.000Z</time>
      </trkpt>
      <trkpt lat="39.706043" lon="-78.654772">
        <ele>360.39907</ele>
        <time>2026-07-12T09:28:42.000Z</time>
      </trkpt>
      <trkpt lat="39.706285" lon="-78.654817">
        <ele>360.504623</ele>
        <time>2026-07-12T09:28:45.000Z</time>
      </trkpt>
      <trkpt lat="39.706372" lon="-78.654846">
        <ele>360.536877</ele>
        <time>2026-07-12T09:28:46.000Z</time>
      </trkpt>
      <trkpt lat="39.706409" lon="-78.655038">
        <ele>360.606848</ele>
        <time>2026-07-12T09:28:48.000Z</time>
      </trkpt>
      <trkpt lat="39.706449" lon="-78.655096">
        <ele>360.630994</ele>
        <time>2026-07-12T09:28:49.000Z</time>
      </trkpt>
      <trkpt lat="39.7065" lon="-78.655115">
        <ele>360.657466</ele>
        <time>2026-07-12T09:28:50.000Z</time>
      </trkpt>
      <trkpt lat="39.706583" lon="-78.655107">
        <ele>360.688605</ele>
        <time>2026-07-12T09:28:51.000Z</time>
      </trkpt>
      <trkpt lat="39.706619" lon="-78.655063">
        <ele>360.713381</ele>
        <time>2026-07-12T09:28:52.000Z</time>
      </trkpt>
      <trkpt lat="39.706662" lon="-78.654568">
        <ele>360.874925</ele>
        <time>2026-07-12T09:28:56.000Z</time>
      </trkpt>
      <trkpt lat="39.706664" lon="-78.65448">
        <ele>360.903675</ele>
        <time>2026-07-12T09:28:57.000Z</time>
      </trkpt>
      <trkpt lat="39.706446" lon="-78.654306">
        <ele>361.011467</ele>
        <time>2026-07-12T09:29:00.000Z</time>
      </trkpt>
      <trkpt lat="39.706151" lon="-78.654188">
        <ele>360.887677</ele>
        <time>2026-07-12T09:29:03.000Z</time>
      </trkpt>
      <trkpt lat="39.705976" lon="-78.65416">
        <ele>360.782083</ele>
        <time>2026-07-12T09:29:05.000Z</time>
      </trkpt>
      <trkpt lat="39.705671" lon="-78.654022">
        <ele>360.583725</ele>
        <time>2026-07-12T09:29:09.000Z</time>
      </trkpt>
      <trkpt lat="39.7056" lon="-78.653945">
        <ele>360.527724</ele>
        <time>2026-07-12T09:29:10.000Z</time>
      </trkpt>
      <trkpt lat="39.705564" lon="-78.653883">
        <ele>360.486866</ele>
        <time>2026-07-12T09:29:11.000Z</time>
      </trkpt>
      <trkpt lat="39.70562" lon="-78.653696">
        <ele>360.401515</ele>
        <time>2026-07-12T09:29:13.000Z</time>
      </trkpt>
      <trkpt lat="39.705659" lon="-78.653629">
        <ele>360.357232</ele>
        <time>2026-07-12T09:29:14.000Z</time>
      </trkpt>
      <trkpt lat="39.705809" lon="-78.653603">
        <ele>360.270075</ele>
        <time>2026-07-12T09:29:16.000Z</time>
      </trkpt>
      <trkpt lat="39.706063" lon="-78.653736">
        <ele>360.103799</ele>
        <time>2026-07-12T09:29:19.000Z</time>
      </trkpt>
      <trkpt lat="39.706271" lon="-78.653759">
        <ele>359.971744</ele>
        <time>2026-07-12T09:29:21.000Z</time>
      </trkpt>
      <trkpt lat="39.706508" lon="-78.653845">
        <ele>360.052128</ele>
        <time>2026-07-12T09:29:24.000Z</time>
      </trkpt>
      <trkpt lat="39.706653" lon="-78.653968">
        <ele>360.165331</ele>
        <time>2026-07-12T09:29:26.000Z</time>
      </trkpt>
      <trkpt lat="39.706878" lon="-78.654236">
        <ele>360.354354</ele>
        <time>2026-07-12T09:29:29.000Z</time>
      </trkpt>
      <trkpt lat="39.707141" lon="-78.654278">
        <ele>360.52003</ele>
        <time>2026-07-12T09:29:32.000Z</time>
      </trkpt>
      <trkpt lat="39.707205" lon="-78.654259">
        <ele>360.563779</ele>
        <time>2026-07-12T09:29:33.000Z</time>
      </trkpt>
      <trkpt lat="39.707258" lon="-78.654189">
        <ele>360.608078</ele>
        <time>2026-07-12T09:29:34.000Z</time>
      </trkpt>
      <trkpt lat="39.707257" lon="-78.654116">
        <ele>360.64689</ele>
        <time>2026-07-12T09:29:35.000Z</time>
      </trkpt>
      <trkpt lat="39.707115" lon="-78.653879">
        <ele>360.784323</ele>
        <time>2026-07-12T09:29:38.000Z</time>
      </trkpt>
      <trkpt lat="39.70711" lon="-78.653826">
        <ele>360.817069</ele>
        <time>2026-07-12T09:29:38.000Z</time>
      </trkpt>
      <trkpt lat="39.707128" lon="-78.653753">
        <ele>360.853359</ele>
        <time>2026-07-12T09:29:39.000Z</time>
      </trkpt>
      <trkpt lat="39.707287" lon="-78.653658">
        <ele>360.957843</ele>
        <time>2026-07-12T09:29:41.000Z</time>
      </trkpt>
      <trkpt lat="39.707355" lon="-78.653547">
        <ele>361.025968</ele>
        <time>2026-07-12T09:29:42.000Z</time>
      </trkpt>
      <trkpt lat="39.70753" lon="-78.653455">
        <ele>360.807058</ele>
        <time>2026-07-12T09:29:44.000Z</time>
      </trkpt>
      <trkpt lat="39.707554" lon="-78.653357">
        <ele>360.678464</ele>
        <time>2026-07-12T09:29:45.000Z</time>
      </trkpt>
      <trkpt lat="39.707535" lon="-78.6533">
        <ele>360.567416</ele>
        <time>2026-07-12T09:29:46.000Z</time>
      </trkpt>
      <trkpt lat="39.70747" lon="-78.653268">
        <ele>360.452691</ele>
        <time>2026-07-12T09:29:47.000Z</time>
      </trkpt>
      <trkpt lat="39.707414" lon="-78.653257">
        <ele>360.341404</ele>
        <time>2026-07-12T09:29:48.000Z</time>
      </trkpt>
      <trkpt lat="39.707292" lon="-78.653408">
        <ele>360.034628</ele>
        <time>2026-07-12T09:29:50.000Z</time>
      </trkpt>
      <trkpt lat="39.707233" lon="-78.653425">
        <ele>359.911677</ele>
        <time>2026-07-12T09:29:51.000Z</time>
      </trkpt>
      <trkpt lat="39.707078" lon="-78.653358">
        <ele>359.616226</ele>
        <time>2026-07-12T09:29:53.000Z</time>
      </trkpt>
      <trkpt lat="39.706923" lon="-78.653245">
        <ele>359.285045</ele>
        <time>2026-07-12T09:29:55.000Z</time>
      </trkpt>
      <trkpt lat="39.706864" lon="-78.653157">
        <ele>359.098868</ele>
        <time>2026-07-12T09:29:56.000Z</time>
      </trkpt>
      <trkpt lat="39.706767" lon="-78.652784">
        <ele>358.562358</ele>
        <time>2026-07-12T09:29:59.000Z</time>
      </trkpt>
      <trkpt lat="39.706724" lon="-78.652747">
        <ele>358.453492</ele>
        <time>2026-07-12T09:30:00.000Z</time>
      </trkpt>
      <trkpt lat="39.70649" lon="-78.652717">
        <ele>357.994543</ele>
        <time>2026-07-12T09:30:03.000Z</time>
      </trkpt>
      <trkpt lat="39.706312" lon="-78.65266">
        <ele>357.717496</ele>
        <time>2026-07-12T09:30:05.000Z</time>
      </trkpt>
      <trkpt lat="39.706296" lon="-78.65266">
        <ele>357.715487</ele>
        <time>2026-07-12T09:30:05.000Z</time>
      </trkpt>
      <trkpt lat="39.706177" lon="-78.652586">
        <ele>357.679705</ele>
        <time>2026-07-12T09:30:06.000Z</time>
      </trkpt>
      <trkpt lat="39.705991" lon="-78.652377">
        <ele>357.616718</ele>
        <time>2026-07-12T09:30:09.000Z</time>
      </trkpt>
      <trkpt lat="39.70593" lon="-78.652295">
        <ele>357.590794</ele>
        <time>2026-07-12T09:30:10.000Z</time>
      </trkpt>
      <trkpt lat="39.705723" lon="-78.652229">
        <ele>357.536232</ele>
        <time>2026-07-12T09:30:12.000Z</time>
      </trkpt>
      <trkpt lat="39.705725" lon="-78.652156">
        <ele>357.520042</ele>
        <time>2026-07-12T09:30:13.000Z</time>
      </trkpt>
      <trkpt lat="39.705849" lon="-78.651899">
        <ele>357.457811</ele>
        <time>2026-07-12T09:30:16.000Z</time>
      </trkpt>
      <trkpt lat="39.705913" lon="-78.651864">
        <ele>357.440942</ele>
        <time>2026-07-12T09:30:17.000Z</time>
      </trkpt>
      <trkpt lat="39.706149" lon="-78.65194">
        <ele>357.374616</ele>
        <time>2026-07-12T09:30:20.000Z</time>
      </trkpt>
      <trkpt lat="39.70641" lon="-78.65202">
        <ele>357.30391</ele>
        <time>2026-07-12T09:30:23.000Z</time>
      </trkpt>
      <trkpt lat="39.706624" lon="-78.652038">
        <ele>357.300314</ele>
        <time>2026-07-12T09:30:25.000Z</time>
      </trkpt>
      <trkpt lat="39.706771" lon="-78.652145">
        <ele>357.644264</ele>
        <time>2026-07-12T09:30:27.000Z</time>
      </trkpt>
      <trkpt lat="39.70691" lon="-78.652208">
        <ele>357.921703</ele>
        <time>2026-07-12T09:30:29.000Z</time>
      </trkpt>
      <trkpt lat="39.707484" lon="-78.652165">
        <ele>359.022886</ele>
        <time>2026-07-12T09:30:35.000Z</time>
      </trkpt>
      <trkpt lat="39.707716" lon="-78.652023">
        <ele>359.506023</ele>
        <time>2026-07-12T09:30:38.000Z</time>
      </trkpt>
      <trkpt lat="39.707957" lon="-78.651991">
        <ele>359.980463</ele>
        <time>2026-07-12T09:30:41.000Z</time>
      </trkpt>
      <trkpt lat="39.708046" lon="-78.65189">
        <ele>360.189044</ele>
        <time>2026-07-12T09:30:42.000Z</time>
      </trkpt>
      <trkpt lat="39.708089" lon="-78.651759">
        <ele>360.395833</ele>
        <time>2026-07-12T09:30:43.000Z</time>
      </trkpt>
      <trkpt lat="39.708322" lon="-78.651512">
        <ele>361.392487</ele>
        <time>2026-07-12T09:30:46.000Z</time>
      </trkpt>
      <trkpt lat="39.708395" lon="-78.651253">
        <ele>362.387836</ele>
        <time>2026-07-12T09:30:48.000Z</time>
      </trkpt>
      <trkpt lat="39.708395" lon="-78.651222">
        <ele>362.496799</ele>
        <time>2026-07-12T09:30:48.000Z</time>
      </trkpt>
      <trkpt lat="39.708644" lon="-78.651188">
        <ele>363.675745</ele>
        <time>2026-07-12T09:30:51.000Z</time>
      </trkpt>
      <trkpt lat="39.708784" lon="-78.651064">
        <ele>364.505379</ele>
        <time>2026-07-12T09:30:53.000Z</time>
      </trkpt>
      <trkpt lat="39.708829" lon="-78.650975">
        <ele>364.890852</ele>
        <time>2026-07-12T09:30:54.000Z</time>
      </trkpt>
      <trkpt lat="39.70885" lon="-78.650887">
        <ele>365.206063</ele>
        <time>2026-07-12T09:30:55.000Z</time>
      </trkpt>
      <trkpt lat="39.708815" lon="-78.6506">
        <ele>366.275204</ele>
        <time>2026-07-12T09:30:57.000Z</time>
      </trkpt>
      <trkpt lat="39.708822" lon="-78.650474">
        <ele>366.738193</ele>
        <time>2026-07-12T09:30:58.000Z</time>
      </trkpt>
      <trkpt lat="39.708894" lon="-78.650082">
        <ele>368.186309</ele>
        <time>2026-07-12T09:31:01.000Z</time>
      </trkpt>
      <trkpt lat="39.709304" lon="-78.649802">
        <ele>370.017349</ele>
        <time>2026-07-12T09:31:06.000Z</time>
      </trkpt>
      <trkpt lat="39.70961" lon="-78.649874">
        <ele>371.052844</ele>
        <time>2026-07-12T09:31:09.000Z</time>
      </trkpt>
      <trkpt lat="39.70966" lon="-78.649697">
        <ele>371.566658</ele>
        <time>2026-07-12T09:31:11.000Z</time>
      </trkpt>
      <trkpt lat="39.709818" lon="-78.649531">
        <ele>372.243507</ele>
        <time>2026-07-12T09:31:13.000Z</time>
      </trkpt>
      <trkpt lat="39.710308" lon="-78.649187">
        <ele>374.132154</ele>
        <time>2026-07-12T09:31:19.000Z</time>
      </trkpt>
      <trkpt lat="39.710523" lon="-78.649479">
        <ele>375.195868</ele>
        <time>2026-07-12T09:31:22.000Z</time>
      </trkpt>
      <trkpt lat="39.710921" lon="-78.649959">
        <ele>378.295363</ele>
        <time>2026-07-12T09:31:28.000Z</time>
      </trkpt>
      <trkpt lat="39.711076" lon="-78.650099">
        <ele>379.33614</ele>
        <time>2026-07-12T09:31:30.000Z</time>
      </trkpt>
      <trkpt lat="39.711257" lon="-78.650189">
        <ele>380.364087</ele>
        <time>2026-07-12T09:31:32.000Z</time>
      </trkpt>
      <trkpt lat="39.711581" lon="-78.650303">
        <ele>382.308311</ele>
        <time>2026-07-12T09:31:36.000Z</time>
      </trkpt>
      <trkpt lat="39.711784" lon="-78.650435">
        <ele>383.650592</ele>
        <time>2026-07-12T09:31:39.000Z</time>
      </trkpt>
      <trkpt lat="39.71186" lon="-78.650537">
        <ele>384.264723</ele>
        <time>2026-07-12T09:31:40.000Z</time>
      </trkpt>
      <trkpt lat="39.711913" lon="-78.650675">
        <ele>384.955363</ele>
        <time>2026-07-12T09:31:41.000Z</time>
      </trkpt>
      <trkpt lat="39.711927" lon="-78.650814">
        <ele>385.549199</ele>
        <time>2026-07-12T09:31:42.000Z</time>
      </trkpt>
      <trkpt lat="39.711919" lon="-78.650814">
        <ele>385.561087</ele>
        <time>2026-07-12T09:31:42.000Z</time>
      </trkpt>
      <trkpt lat="39.711879" lon="-78.651102">
        <ele>386.398927</ele>
        <time>2026-07-12T09:31:45.000Z</time>
      </trkpt>
      <trkpt lat="39.711648" lon="-78.651607">
        <ele>388.052949</ele>
        <time>2026-07-12T09:31:50.000Z</time>
      </trkpt>
      <trkpt lat="39.712073" lon="-78.652494">
        <ele>390.988913</ele>
        <time>2026-07-12T09:31:59.000Z</time>
      </trkpt>
      <trkpt lat="39.712111" lon="-78.652552">
        <ele>391.212698</ele>
        <time>2026-07-12T09:32:00.000Z</time>
      </trkpt>
      <trkpt lat="39.712117" lon="-78.652671">
        <ele>391.525038</ele>
        <time>2026-07-12T09:32:01.000Z</time>
      </trkpt>
      <trkpt lat="39.71202" lon="-78.652756">
        <ele>391.948905</ele>
        <time>2026-07-12T09:32:02.000Z</time>
      </trkpt>
      <trkpt lat="39.711334" lon="-78.652953">
        <ele>391.130567</ele>
        <time>2026-07-12T09:32:10.000Z</time>
      </trkpt>
      <trkpt lat="39.711092" lon="-78.653067">
        <ele>390.728233</ele>
        <time>2026-07-12T09:32:13.000Z</time>
      </trkpt>
      <trkpt lat="39.710738" lon="-78.653407">
        <ele>390.080096</ele>
        <time>2026-07-12T09:32:18.000Z</time>
      </trkpt>
      <trkpt lat="39.709789" lon="-78.654147">
        <ele>389.120711</ele>
        <time>2026-07-12T09:32:30.000Z</time>
      </trkpt>
      <trkpt lat="39.709527" lon="-78.654227">
        <ele>389.000417</ele>
        <time>2026-07-12T09:32:33.000Z</time>
      </trkpt>
      <trkpt lat="39.709045" lon="-78.65461">
        <ele>388.754161</ele>
        <time>2026-07-12T09:32:39.000Z</time>
      </trkpt>
      <trkpt lat="39.708778" lon="-78.654779">
        <ele>388.62922</ele>
        <time>2026-07-12T09:32:42.000Z</time>
      </trkpt>
      <trkpt lat="39.708608" lon="-78.654921">
        <ele>387.918643</ele>
        <time>2026-07-12T09:32:44.000Z</time>
      </trkpt>
      <trkpt lat="39.708299" lon="-78.655251">
        <ele>386.575595</ele>
        <time>2026-07-12T09:32:48.000Z</time>
      </trkpt>
      <trkpt lat="39.707741" lon="-78.655711">
        <ele>384.310117</ele>
        <time>2026-07-12T09:32:55.000Z</time>
      </trkpt>
      <trkpt lat="39.7076" lon="-78.655878">
        <ele>383.69588</ele>
        <time>2026-07-12T09:32:57.000Z</time>
      </trkpt>
      <trkpt lat="39.707241" lon="-78.656229">
        <ele>382.616875</ele>
        <time>2026-07-12T09:33:02.000Z</time>
      </trkpt>
      <trkpt lat="39.706385" lon="-78.656715">
        <ele>383.762564</ele>
        <time>2026-07-12T09:33:12.000Z</time>
      </trkpt>
      <trkpt lat="39.706261" lon="-78.656842">
        <ele>383.954723</ele>
        <time>2026-07-12T09:33:14.000Z</time>
      </trkpt>
      <trkpt lat="39.706217" lon="-78.65698">
        <ele>384.104121</ele>
        <time>2026-07-12T09:33:15.000Z</time>
      </trkpt>
      <trkpt lat="39.706274" lon="-78.657302">
        <ele>384.418061</ele>
        <time>2026-07-12T09:33:18.000Z</time>
      </trkpt>
      <trkpt lat="39.706475" lon="-78.657125">
        <ele>384.71492</ele>
        <time>2026-07-12T09:33:21.000Z</time>
      </trkpt>
      <trkpt lat="39.706553" lon="-78.657013">
        <ele>385.178429</ele>
        <time>2026-07-12T09:33:22.000Z</time>
      </trkpt>
      <trkpt lat="39.706852" lon="-78.656724">
        <ele>386.699894</ele>
        <time>2026-07-12T09:33:26.000Z</time>
      </trkpt>
      <trkpt lat="39.707099" lon="-78.656686">
        <ele>387.761725</ele>
        <time>2026-07-12T09:33:29.000Z</time>
      </trkpt>
      <trkpt lat="39.707455" lon="-78.656755">
        <ele>389.23555</ele>
        <time>2026-07-12T09:33:33.000Z</time>
      </trkpt>
      <trkpt lat="39.70763" lon="-78.656817">
        <ele>389.95452</ele>
        <time>2026-07-12T09:33:35.000Z</time>
      </trkpt>
      <trkpt lat="39.707911" lon="-78.65697">
        <ele>391.24002</ele>
        <time>2026-07-12T09:33:38.000Z</time>
      </trkpt>
      <trkpt lat="39.708007" lon="-78.656963">
        <ele>391.656975</ele>
        <time>2026-07-12T09:33:39.000Z</time>
      </trkpt>
      <trkpt lat="39.708109" lon="-78.656923">
        <ele>392.044537</ele>
        <time>2026-07-12T09:33:40.000Z</time>
      </trkpt>
      <trkpt lat="39.708163" lon="-78.656826">
        <ele>392.573914</ele>
        <time>2026-07-12T09:33:41.000Z</time>
      </trkpt>
      <trkpt lat="39.708175" lon="-78.656522">
        <ele>393.941636</ele>
        <time>2026-07-12T09:33:44.000Z</time>
      </trkpt>
      <trkpt lat="39.708206" lon="-78.65646">
        <ele>394.2622</ele>
        <time>2026-07-12T09:33:45.000Z</time>
      </trkpt>
      <trkpt lat="39.708535" lon="-78.656202">
        <ele>396.53449</ele>
        <time>2026-07-12T09:33:49.000Z</time>
      </trkpt>
      <trkpt lat="39.70894" lon="-78.655603">
        <ele>400.102119</ele>
        <time>2026-07-12T09:33:56.000Z</time>
      </trkpt>
      <trkpt lat="39.709048" lon="-78.655441">
        <ele>401.084121</ele>
        <time>2026-07-12T09:33:58.000Z</time>
      </trkpt>
      <trkpt lat="39.70906" lon="-78.655427">
        <ele>401.119715</ele>
        <time>2026-07-12T09:33:58.000Z</time>
      </trkpt>
      <trkpt lat="39.709255" lon="-78.655229">
        <ele>402.586964</ele>
        <time>2026-07-12T09:34:01.000Z</time>
      </trkpt>
      <trkpt lat="39.709443" lon="-78.655116">
        <ele>403.781581</ele>
        <time>2026-07-12T09:34:03.000Z</time>
      </trkpt>
      <trkpt lat="39.709457" lon="-78.655096">
        <ele>403.807563</ele>
        <time>2026-07-12T09:34:03.000Z</time>
      </trkpt>
      <trkpt lat="39.710314" lon="-78.654816">
        <ele>408.856994</ele>
        <time>2026-07-12T09:34:13.000Z</time>
      </trkpt>
      <trkpt lat="39.71065" lon="-78.654764">
        <ele>410.674849</ele>
        <time>2026-07-12T09:34:17.000Z</time>
      </trkpt>
      <trkpt lat="39.710892" lon="-78.654772">
        <ele>412.08448</ele>
        <time>2026-07-12T09:34:20.000Z</time>
      </trkpt>
      <trkpt lat="39.7119" lon="-78.654791">
        <ele>417.231438</ele>
        <time>2026-07-12T09:34:31.000Z</time>
      </trkpt>
      <trkpt lat="39.712169" lon="-78.65488">
        <ele>418.684067</ele>
        <time>2026-07-12T09:34:34.000Z</time>
      </trkpt>
      <trkpt lat="39.712398" lon="-78.654897">
        <ele>419.774916</ele>
        <time>2026-07-12T09:34:37.000Z</time>
      </trkpt>
      <trkpt lat="39.712865" lon="-78.65487">
        <ele>422.057415</ele>
        <time>2026-07-12T09:34:42.000Z</time>
      </trkpt>
      <trkpt lat="39.712926" lon="-78.654818">
        <ele>422.280704</ele>
        <time>2026-07-12T09:34:43.000Z</time>
      </trkpt>
      <trkpt lat="39.713019" lon="-78.654591">
        <ele>422.981764</ele>
        <time>2026-07-12T09:34:45.000Z</time>
      </trkpt>
      <trkpt lat="39.713152" lon="-78.654505">
        <ele>423.485582</ele>
        <time>2026-07-12T09:34:47.000Z</time>
      </trkpt>
      <trkpt lat="39.713372" lon="-78.654382">
        <ele>424.362198</ele>
        <time>2026-07-12T09:34:50.000Z</time>
      </trkpt>
      <trkpt lat="39.713775" lon="-78.654412">
        <ele>425.744306</ele>
        <time>2026-07-12T09:34:54.000Z</time>
      </trkpt>
      <trkpt lat="39.713857" lon="-78.65436">
        <ele>426.06308</ele>
        <time>2026-07-12T09:34:55.000Z</time>
      </trkpt>
      <trkpt lat="39.713997" lon="-78.654129">
        <ele>426.872792</ele>
        <time>2026-07-12T09:34:58.000Z</time>
      </trkpt>
      <trkpt lat="39.714093" lon="-78.654061">
        <ele>427.203514</ele>
        <time>2026-07-12T09:34:59.000Z</time>
      </trkpt>
      <trkpt lat="39.714494" lon="-78.653919">
        <ele>428.440644</ele>
        <time>2026-07-12T09:35:04.000Z</time>
      </trkpt>
      <trkpt lat="39.71484" lon="-78.653697">
        <ele>429.272653</ele>
        <time>2026-07-12T09:35:08.000Z</time>
      </trkpt>
      <trkpt lat="39.715554" lon="-78.653155">
        <ele>431.009997</ele>
        <time>2026-07-12T09:35:17.000Z</time>
      </trkpt>
      <trkpt lat="39.715678" lon="-78.652925">
        <ele>431.465466</ele>
        <time>2026-07-12T09:35:19.000Z</time>
      </trkpt>
      <trkpt lat="39.716333" lon="-78.652124">
        <ele>426.432216</ele>
        <time>2026-07-12T09:35:29.000Z</time>
      </trkpt>
      <trkpt lat="39.716546" lon="-78.651827">
        <ele>424.031513</ele>
        <time>2026-07-12T09:35:32.000Z</time>
      </trkpt>
      <trkpt lat="39.716549" lon="-78.651779">
        <ele>423.724716</ele>
        <time>2026-07-12T09:35:32.000Z</time>
      </trkpt>
      <trkpt lat="39.716483" lon="-78.651454">
        <ele>421.670538</ele>
        <time>2026-07-12T09:35:35.000Z</time>
      </trkpt>
      <trkpt lat="39.71645" lon="-78.651325">
        <ele>420.862986</ele>
        <time>2026-07-12T09:35:36.000Z</time>
      </trkpt>
      <trkpt lat="39.716319" lon="-78.651084">
        <ele>419.134766</ele>
        <time>2026-07-12T09:35:39.000Z</time>
      </trkpt>
      <trkpt lat="39.716129" lon="-78.650837">
        <ele>416.700923</ele>
        <time>2026-07-12T09:35:42.000Z</time>
      </trkpt>
      <trkpt lat="39.716014" lon="-78.650635">
        <ele>414.429901</ele>
        <time>2026-07-12T09:35:44.000Z</time>
      </trkpt>
      <trkpt lat="39.715813" lon="-78.650394">
        <ele>411.265173</ele>
        <time>2026-07-12T09:35:47.000Z</time>
      </trkpt>
      <trkpt lat="39.715522" lon="-78.650207">
        <ele>407.655392</ele>
        <time>2026-07-12T09:35:51.000Z</time>
      </trkpt>
      <trkpt lat="39.71519" lon="-78.649786">
        <ele>402.334926</ele>
        <time>2026-07-12T09:35:56.000Z</time>
      </trkpt>
      <trkpt lat="39.715028" lon="-78.649539">
        <ele>399.470866</ele>
        <time>2026-07-12T09:35:59.000Z</time>
      </trkpt>
      <trkpt lat="39.714763" lon="-78.649036">
        <ele>395.510601</ele>
        <time>2026-07-12T09:36:04.000Z</time>
      </trkpt>
      <trkpt lat="39.714722" lon="-78.648928">
        <ele>394.877124</ele>
        <time>2026-07-12T09:36:05.000Z</time>
      </trkpt>
      <trkpt lat="39.714678" lon="-78.648766">
        <ele>394.091859</ele>
        <time>2026-07-12T09:36:06.000Z</time>
      </trkpt>
      <trkpt lat="39.714491" lon="-78.648158">
        <ele>390.854788</ele>
        <time>2026-07-12T09:36:12.000Z</time>
      </trkpt>
      <trkpt lat="39.714502" lon="-78.647962">
        <ele>389.864482</ele>
        <time>2026-07-12T09:36:14.000Z</time>
      </trkpt>
      <trkpt lat="39.714256" lon="-78.647709">
        <ele>387.83129</ele>
        <time>2026-07-12T09:36:17.000Z</time>
      </trkpt>
      <trkpt lat="39.713761" lon="-78.647472">
        <ele>385.498731</ele>
        <time>2026-07-12T09:36:23.000Z</time>
      </trkpt>
      <trkpt lat="39.713705" lon="-78.647413">
        <ele>385.424372</ele>
        <time>2026-07-12T09:36:24.000Z</time>
      </trkpt>
      <trkpt lat="39.71369" lon="-78.647269">
        <ele>385.30389</ele>
        <time>2026-07-12T09:36:25.000Z</time>
      </trkpt>
      <trkpt lat="39.713732" lon="-78.6472">
        <ele>385.240539</ele>
        <time>2026-07-12T09:36:26.000Z</time>
      </trkpt>
      <trkpt lat="39.71379" lon="-78.647149">
        <ele>385.166788</ele>
        <time>2026-07-12T09:36:27.000Z</time>
      </trkpt>
      <trkpt lat="39.713918" lon="-78.647101">
        <ele>385.021989</ele>
        <time>2026-07-12T09:36:28.000Z</time>
      </trkpt>
      <trkpt lat="39.714362" lon="-78.647175">
        <ele>384.552746</ele>
        <time>2026-07-12T09:36:33.000Z</time>
      </trkpt>
      <trkpt lat="39.714496" lon="-78.647142">
        <ele>384.403318</ele>
        <time>2026-07-12T09:36:35.000Z</time>
      </trkpt>
      <trkpt lat="39.71459" lon="-78.647109">
        <ele>384.296296</ele>
        <time>2026-07-12T09:36:36.000Z</time>
      </trkpt>
      <trkpt lat="39.715359" lon="-78.646171">
        <ele>382.529672</ele>
        <time>2026-07-12T09:36:48.000Z</time>
      </trkpt>
      <trkpt lat="39.715602" lon="-78.645977">
        <ele>381.895303</ele>
        <time>2026-07-12T09:36:51.000Z</time>
      </trkpt>
      <trkpt lat="39.715734" lon="-78.645952">
        <ele>381.569234</ele>
        <time>2026-07-12T09:36:52.000Z</time>
      </trkpt>
      <trkpt lat="39.715845" lon="-78.645958">
        <ele>381.343325</ele>
        <time>2026-07-12T09:36:53.000Z</time>
      </trkpt>
      <trkpt lat="39.715965" lon="-78.645689">
        <ele>380.811851</ele>
        <time>2026-07-12T09:36:56.000Z</time>
      </trkpt>
      <trkpt lat="39.71604" lon="-78.645582">
        <ele>380.571141</ele>
        <time>2026-07-12T09:36:57.000Z</time>
      </trkpt>
      <trkpt lat="39.716293" lon="-78.645388">
        <ele>379.901744</ele>
        <time>2026-07-12T09:37:00.000Z</time>
      </trkpt>
      <trkpt lat="39.716384" lon="-78.645233">
        <ele>379.273477</ele>
        <time>2026-07-12T09:37:02.000Z</time>
      </trkpt>
      <trkpt lat="39.716374" lon="-78.64505">
        <ele>378.586089</ele>
        <time>2026-07-12T09:37:04.000Z</time>
      </trkpt>
      <trkpt lat="39.716285" lon="-78.644818">
        <ele>377.537898</ele>
        <time>2026-07-12T09:37:06.000Z</time>
      </trkpt>
      <trkpt lat="39.71634" lon="-78.644756">
        <ele>377.163057</ele>
        <time>2026-07-12T09:37:07.000Z</time>
      </trkpt>
      <trkpt lat="39.717018" lon="-78.643879">
        <ele>372.199302</ele>
        <time>2026-07-12T09:37:18.000Z</time>
      </trkpt>
      <trkpt lat="39.717242" lon="-78.643628">
        <ele>370.615587</ele>
        <time>2026-07-12T09:37:21.000Z</time>
      </trkpt>
      <trkpt lat="39.71752" lon="-78.643396">
        <ele>369.153706</ele>
        <time>2026-07-12T09:37:25.000Z</time>
      </trkpt>
      <trkpt lat="39.717613" lon="-78.64328">
        <ele>368.534324</ele>
        <time>2026-07-12T09:37:26.000Z</time>
      </trkpt>
      <trkpt lat="39.717629" lon="-78.643285">
        <ele>368.516931</ele>
        <time>2026-07-12T09:37:26.000Z</time>
      </trkpt>
      <trkpt lat="39.717681" lon="-78.643183">
        <ele>368.037576</ele>
        <time>2026-07-12T09:37:27.000Z</time>
      </trkpt>
      <trkpt lat="39.717763" lon="-78.64292">
        <ele>367.055118</ele>
        <time>2026-07-12T09:37:29.000Z</time>
      </trkpt>
      <trkpt lat="39.717792" lon="-78.642615">
        <ele>365.962248</ele>
        <time>2026-07-12T09:37:32.000Z</time>
      </trkpt>
      <trkpt lat="39.71764" lon="-78.642217">
        <ele>364.358466</ele>
        <time>2026-07-12T09:37:36.000Z</time>
      </trkpt>
      <trkpt lat="39.717496" lon="-78.642033">
        <ele>363.448551</ele>
        <time>2026-07-12T09:37:38.000Z</time>
      </trkpt>
      <trkpt lat="39.717444" lon="-78.641999">
        <ele>363.143867</ele>
        <time>2026-07-12T09:37:39.000Z</time>
      </trkpt>
      <trkpt lat="39.717022" lon="-78.641575">
        <ele>361.396137</ele>
        <time>2026-07-12T09:37:45.000Z</time>
      </trkpt>
      <trkpt lat="39.716824" lon="-78.641365">
        <ele>360.743957</ele>
        <time>2026-07-12T09:37:48.000Z</time>
      </trkpt>
      <trkpt lat="39.716726" lon="-78.641222">
        <ele>360.358069</ele>
        <time>2026-07-12T09:37:50.000Z</time>
      </trkpt>
      <trkpt lat="39.716456" lon="-78.640658">
        <ele>359.042401</ele>
        <time>2026-07-12T09:37:56.000Z</time>
      </trkpt>
      <trkpt lat="39.716374" lon="-78.640529">
        <ele>358.714062</ele>
        <time>2026-07-12T09:37:57.000Z</time>
      </trkpt>
      <trkpt lat="39.716257" lon="-78.640425">
        <ele>358.346183</ele>
        <time>2026-07-12T09:37:59.000Z</time>
      </trkpt>
      <trkpt lat="39.71586" lon="-78.640245">
        <ele>357.829527</ele>
        <time>2026-07-12T09:38:04.000Z</time>
      </trkpt>
      <trkpt lat="39.715733" lon="-78.640151">
        <ele>358.038989</ele>
        <time>2026-07-12T09:38:06.000Z</time>
      </trkpt>
      <trkpt lat="39.715605" lon="-78.640014">
        <ele>358.271339</ele>
        <time>2026-07-12T09:38:08.000Z</time>
      </trkpt>
      <trkpt lat="39.715542" lon="-78.640065">
        <ele>358.367209</ele>
        <time>2026-07-12T09:38:09.000Z</time>
      </trkpt>
      <trkpt lat="39.715509" lon="-78.640056">
        <ele>358.417989</ele>
        <time>2026-07-12T09:38:09.000Z</time>
      </trkpt>
      <trkpt lat="39.715276" lon="-78.640225">
        <ele>358.792905</ele>
        <time>2026-07-12T09:38:12.000Z</time>
      </trkpt>
      <trkpt lat="39.714955" lon="-78.640338">
        <ele>359.275871</ele>
        <time>2026-07-12T09:38:16.000Z</time>
      </trkpt>
      <trkpt lat="39.714589" lon="-78.640567">
        <ele>359.824936</ele>
        <time>2026-07-12T09:38:21.000Z</time>
      </trkpt>
      <trkpt lat="39.714465" lon="-78.640704">
        <ele>360.070784</ele>
        <time>2026-07-12T09:38:23.000Z</time>
      </trkpt>
      <trkpt lat="39.714398" lon="-78.640757">
        <ele>360.190071</ele>
        <time>2026-07-12T09:38:24.000Z</time>
      </trkpt>
      <trkpt lat="39.714209" lon="-78.640706">
        <ele>360.589923</ele>
        <time>2026-07-12T09:38:26.000Z</time>
      </trkpt>
      <trkpt lat="39.713893" lon="-78.640771">
        <ele>361.335689</ele>
        <time>2026-07-12T09:38:30.000Z</time>
      </trkpt>
      <trkpt lat="39.713575" lon="-78.640739">
        <ele>362.03491</ele>
        <time>2026-07-12T09:38:34.000Z</time>
      </trkpt>
      <trkpt lat="39.713193" lon="-78.640549">
        <ele>362.963406</ele>
        <time>2026-07-12T09:38:39.000Z</time>
      </trkpt>
      <trkpt lat="39.712957" lon="-78.640516">
        <ele>363.486619</ele>
        <time>2026-07-12T09:38:42.000Z</time>
      </trkpt>
      <trkpt lat="39.711255" lon="-78.641142">
        <ele>363.532252</ele>
        <time>2026-07-12T09:39:02.000Z</time>
      </trkpt>
      <trkpt lat="39.711151" lon="-78.641268">
        <ele>363.465524</ele>
        <time>2026-07-12T09:39:04.000Z</time>
      </trkpt>
      <trkpt lat="39.710972" lon="-78.64139">
        <ele>363.369214</ele>
        <time>2026-07-12T09:39:06.000Z</time>
      </trkpt>
      <trkpt lat="39.710892" lon="-78.641517">
        <ele>363.160436</ele>
        <time>2026-07-12T09:39:07.000Z</time>
      </trkpt>
      <trkpt lat="39.710833" lon="-78.641649">
        <ele>362.952329</ele>
        <time>2026-07-12T09:39:08.000Z</time>
      </trkpt>
      <trkpt lat="39.710797" lon="-78.642415">
        <ele>361.863972</ele>
        <time>2026-07-12T09:39:15.000Z</time>
      </trkpt>
      <trkpt lat="39.710755" lon="-78.642445">
        <ele>361.774397</ele>
        <time>2026-07-12T09:39:16.000Z</time>
      </trkpt>
      <trkpt lat="39.710604" lon="-78.642428">
        <ele>361.502821</ele>
        <time>2026-07-12T09:39:18.000Z</time>
      </trkpt>
      <trkpt lat="39.710046" lon="-78.642129">
        <ele>360.392651</ele>
        <time>2026-07-12T09:39:25.000Z</time>
      </trkpt>
      <trkpt lat="39.709985" lon="-78.642105">
        <ele>360.251229</ele>
        <time>2026-07-12T09:39:26.000Z</time>
      </trkpt>
      <trkpt lat="39.709336" lon="-78.642258">
        <ele>359.375988</ele>
        <time>2026-07-12T09:39:33.000Z</time>
      </trkpt>
      <trkpt lat="39.709361" lon="-78.642553">
        <ele>359.100654</ele>
        <time>2026-07-12T09:39:36.000Z</time>
      </trkpt>
      <trkpt lat="39.709298" lon="-78.642632">
        <ele>358.983513</ele>
        <time>2026-07-12T09:39:37.000Z</time>
      </trkpt>
      <trkpt lat="39.709185" lon="-78.642655">
        <ele>358.859004</ele>
        <time>2026-07-12T09:39:38.000Z</time>
      </trkpt>
      <trkpt lat="39.709197" lon="-78.642915">
        <ele>358.606105</ele>
        <time>2026-07-12T09:39:40.000Z</time>
      </trkpt>
      <trkpt lat="39.709186" lon="-78.64293">
        <ele>358.572854</ele>
        <time>2026-07-12T09:39:40.000Z</time>
      </trkpt>
      <trkpt lat="39.708998" lon="-78.642909">
        <ele>358.339154</ele>
        <time>2026-07-12T09:39:42.000Z</time>
      </trkpt>
      <trkpt lat="39.708564" lon="-78.642954">
        <ele>357.808814</ele>
        <time>2026-07-12T09:39:47.000Z</time>
      </trkpt>
      <trkpt lat="39.708406" lon="-78.643021">
        <ele>357.987917</ele>
        <time>2026-07-12T09:39:49.000Z</time>
      </trkpt>
      <trkpt lat="39.70822" lon="-78.643032">
        <ele>358.193439</ele>
        <time>2026-07-12T09:39:51.000Z</time>
      </trkpt>
      <trkpt lat="39.708065" lon="-78.642911">
        <ele>358.39152</ele>
        <time>2026-07-12T09:39:53.000Z</time>
      </trkpt>
      <trkpt lat="39.707754" lon="-78.642549">
        <ele>358.86879</ele>
        <time>2026-07-12T09:39:58.000Z</time>
      </trkpt>
      <trkpt lat="39.707676" lon="-78.642563">
        <ele>358.953764</ele>
        <time>2026-07-12T09:39:59.000Z</time>
      </trkpt>
      <trkpt lat="39.707585" lon="-78.642587">
        <ele>359.059751</ele>
        <time>2026-07-12T09:40:00.000Z</time>
      </trkpt>
      <trkpt lat="39.707435" lon="-78.642942">
        <ele>359.412442</ele>
        <time>2026-07-12T09:40:03.000Z</time>
      </trkpt>
      <trkpt lat="39.707372" lon="-78.643048">
        <ele>359.534529</ele>
        <time>2026-07-12T09:40:04.000Z</time>
      </trkpt>
      <trkpt lat="39.707229" lon="-78.643159">
        <ele>359.725036</ele>
        <time>2026-07-12T09:40:06.000Z</time>
      </trkpt>
      <trkpt lat="39.706775" lon="-78.643411">
        <ele>361.385044</ele>
        <time>2026-07-12T09:40:11.000Z</time>
      </trkpt>
      <trkpt lat="39.706529" lon="-78.643357">
        <ele>362.40897</ele>
        <time>2026-07-12T09:40:14.000Z</time>
      </trkpt>
      <trkpt lat="39.706421" lon="-78.643368">
        <ele>362.772651</ele>
        <time>2026-07-12T09:40:15.000Z</time>
      </trkpt>
      <trkpt lat="39.706309" lon="-78.643432">
        <ele>363.264854</ele>
        <time>2026-07-12T09:40:16.000Z</time>
      </trkpt>
      <trkpt lat="39.706265" lon="-78.643501">
        <ele>363.512419</ele>
        <time>2026-07-12T09:40:17.000Z</time>
      </trkpt>
      <trkpt lat="39.706204" lon="-78.643657">
        <ele>364.076682</ele>
        <time>2026-07-12T09:40:18.000Z</time>
      </trkpt>
      <trkpt lat="39.705948" lon="-78.644394">
        <ele>366.497814</ele>
        <time>2026-07-12T09:40:25.000Z</time>
      </trkpt>
      <trkpt lat="39.705766" lon="-78.644773">
        <ele>367.374572</ele>
        <time>2026-07-12T09:40:29.000Z</time>
      </trkpt>
      <trkpt lat="39.70529" lon="-78.645376">
        <ele>368.636603</ele>
        <time>2026-07-12T09:40:36.000Z</time>
      </trkpt>
      <trkpt lat="39.705174" lon="-78.645596">
        <ele>369.034763</ele>
        <time>2026-07-12T09:40:38.000Z</time>
      </trkpt>
      <trkpt lat="39.704888" lon="-78.645921">
        <ele>369.758863</ele>
        <time>2026-07-12T09:40:42.000Z</time>
      </trkpt>
      <trkpt lat="39.704576" lon="-78.646351">
        <ele>370.266898</ele>
        <time>2026-07-12T09:40:47.000Z</time>
      </trkpt>
      <trkpt lat="39.704521" lon="-78.646535">
        <ele>370.214246</ele>
        <time>2026-07-12T09:40:49.000Z</time>
      </trkpt>
      <trkpt lat="39.70429" lon="-78.647039">
        <ele>370.065455</ele>
        <time>2026-07-12T09:40:54.000Z</time>
      </trkpt>
      <trkpt lat="39.704248" lon="-78.647211">
        <ele>370.019587</ele>
        <time>2026-07-12T09:40:56.000Z</time>
      </trkpt>
      <trkpt lat="39.704181" lon="-78.647383">
        <ele>369.969315</ele>
        <time>2026-07-12T09:40:58.000Z</time>
      </trkpt>
      <trkpt lat="39.70412" lon="-78.647753">
        <ele>369.871128</ele>
        <time>2026-07-12T09:41:01.000Z</time>
      </trkpt>
      <trkpt lat="39.704062" lon="-78.647948">
        <ele>369.820958</ele>
        <time>2026-07-12T09:41:03.000Z</time>
      </trkpt>
      <trkpt lat="39.70378" lon="-78.648522">
        <ele>368.949725</ele>
        <time>2026-07-12T09:41:09.000Z</time>
      </trkpt>
      <trkpt lat="39.703659" lon="-78.648826">
        <ele>368.104251</ele>
        <time>2026-07-12T09:41:12.000Z</time>
      </trkpt>
      <trkpt lat="39.703567" lon="-78.649038">
        <ele>367.476642</ele>
        <time>2026-07-12T09:41:14.000Z</time>
      </trkpt>
      <trkpt lat="39.703414" lon="-78.649236">
        <ele>366.760217</ele>
        <time>2026-07-12T09:41:16.000Z</time>
      </trkpt>
      <trkpt lat="39.703224" lon="-78.649542">
        <ele>365.758369</ele>
        <time>2026-07-12T09:41:19.000Z</time>
      </trkpt>
      <trkpt lat="39.703048" lon="-78.649663">
        <ele>365.099949</ele>
        <time>2026-07-12T09:41:21.000Z</time>
      </trkpt>
      <trkpt lat="39.702866" lon="-78.649724">
        <ele>364.47221</ele>
        <time>2026-07-12T09:41:23.000Z</time>
      </trkpt>
      <trkpt lat="39.702016" lon="-78.649796">
        <ele>362.689851</ele>
        <time>2026-07-12T09:41:32.000Z</time>
      </trkpt>
      <trkpt lat="39.701899" lon="-78.649746">
        <ele>362.491979</ele>
        <time>2026-07-12T09:41:33.000Z</time>
      </trkpt>
      <trkpt lat="39.701613" lon="-78.649518">
        <ele>361.922629</ele>
        <time>2026-07-12T09:41:37.000Z</time>
      </trkpt>
      <trkpt lat="39.701499" lon="-78.649481">
        <ele>361.72625</ele>
        <time>2026-07-12T09:41:38.000Z</time>
      </trkpt>
      <trkpt lat="39.701322" lon="-78.649243">
        <ele>361.288751</ele>
        <time>2026-07-12T09:41:41.000Z</time>
      </trkpt>
      <trkpt lat="39.701195" lon="-78.649056">
        <ele>360.981132</ele>
        <time>2026-07-12T09:41:43.000Z</time>
      </trkpt>
      <trkpt lat="39.701123" lon="-78.649067">
        <ele>360.831101</ele>
        <time>2026-07-12T09:41:44.000Z</time>
      </trkpt>
      <trkpt lat="39.700898" lon="-78.649201">
        <ele>360.804885</ele>
        <time>2026-07-12T09:41:47.000Z</time>
      </trkpt>
      <trkpt lat="39.700797" lon="-78.649335">
        <ele>360.876307</ele>
        <time>2026-07-12T09:41:49.000Z</time>
      </trkpt>
      <trkpt lat="39.70079" lon="-78.649417">
        <ele>360.909995</ele>
        <time>2026-07-12T09:41:50.000Z</time>
      </trkpt>
      <trkpt lat="39.700825" lon="-78.649663">
        <ele>361.004942</ele>
        <time>2026-07-12T09:41:52.000Z</time>
      </trkpt>
      <trkpt lat="39.700854" lon="-78.649936">
        <ele>361.11119</ele>
        <time>2026-07-12T09:41:54.000Z</time>
      </trkpt>
      <trkpt lat="39.700861" lon="-78.650368">
        <ele>361.279738</ele>
        <time>2026-07-12T09:41:58.000Z</time>
      </trkpt>
      <trkpt lat="39.700917" lon="-78.650741">
        <ele>361.424375</ele>
        <time>2026-07-12T09:42:01.000Z</time>
      </trkpt>
      <trkpt lat="39.701004" lon="-78.651011">
        <ele>361.538136</ele>
        <time>2026-07-12T09:42:04.000Z</time>
      </trkpt>
      <trkpt lat="39.701068" lon="-78.65112">
        <ele>361.586812</ele>
        <time>2026-07-12T09:42:05.000Z</time>
      </trkpt>
      <trkpt lat="39.701202" lon="-78.651265">
        <ele>361.533619</ele>
        <time>2026-07-12T09:42:07.000Z</time>
      </trkpt>
      <trkpt lat="39.701653" lon="-78.651637">
        <ele>361.22324</ele>
        <time>2026-07-12T09:42:13.000Z</time>
      </trkpt>
      <trkpt lat="39.701682" lon="-78.651788">
        <ele>361.148392</ele>
        <time>2026-07-12T09:42:14.000Z</time>
      </trkpt>
      <trkpt lat="39.701672" lon="-78.651957">
        <ele>361.073227</ele>
        <time>2026-07-12T09:42:15.000Z</time>
      </trkpt>
      <trkpt lat="39.70162" lon="-78.652308">
        <ele>360.907923</ele>
        <time>2026-07-12T09:42:18.000Z</time>
      </trkpt>
      <trkpt lat="39.701482" lon="-78.652626">
        <ele>360.747661</ele>
        <time>2026-07-12T09:42:21.000Z</time>
      </trkpt>
      <trkpt lat="39.701272" lon="-78.652852">
        <ele>360.590235</ele>
        <time>2026-07-12T09:42:24.000Z</time>
      </trkpt>
      <trkpt lat="39.700675" lon="-78.653407">
        <ele>360.674432</ele>
        <time>2026-07-12T09:42:32.000Z</time>
      </trkpt>
      <trkpt lat="39.700578" lon="-78.653481">
        <ele>360.693072</ele>
        <time>2026-07-12T09:42:33.000Z</time>
      </trkpt>
      <trkpt lat="39.700466" lon="-78.653508">
        <ele>360.712329</ele>
        <time>2026-07-12T09:42:34.000Z</time>
      </trkpt>
      <trkpt lat="39.700325" lon="-78.653506">
        <ele>360.737996</ele>
        <time>2026-07-12T09:42:36.000Z</time>
      </trkpt>
      <trkpt lat="39.70016" lon="-78.653503">
        <ele>360.768271</ele>
        <time>2026-07-12T09:42:38.000Z</time>
      </trkpt>
      <trkpt lat="39.699753" lon="-78.653431">
        <ele>360.838543</ele>
        <time>2026-07-12T09:42:43.000Z</time>
      </trkpt>
      <trkpt lat="39.699413" lon="-78.653297">
        <ele>361.03745</ele>
        <time>2026-07-12T09:42:47.000Z</time>
      </trkpt>
      <trkpt lat="39.699409" lon="-78.653532">
        <ele>361.211775</ele>
        <time>2026-07-12T09:42:49.000Z</time>
      </trkpt>
      <trkpt lat="39.699357" lon="-78.653549">
        <ele>361.261829</ele>
        <time>2026-07-12T09:42:50.000Z</time>
      </trkpt>
      <trkpt lat="39.699368" lon="-78.653944">
        <ele>361.549286</ele>
        <time>2026-07-12T09:42:53.000Z</time>
      </trkpt>
      <trkpt lat="39.699329" lon="-78.654076">
        <ele>361.646175</ele>
        <time>2026-07-12T09:42:54.000Z</time>
      </trkpt>
      <trkpt lat="39.69927" lon="-78.654201">
        <ele>361.75744</ele>
        <time>2026-07-12T09:42:55.000Z</time>
      </trkpt>
      <trkpt lat="39.69932" lon="-78.654477">
        <ele>361.963612</ele>
        <time>2026-07-12T09:42:57.000Z</time>
      </trkpt>
      <trkpt lat="39.699431" lon="-78.655359">
        <ele>362.41692</ele>
        <time>2026-07-12T09:43:05.000Z</time>
      </trkpt>
      <trkpt lat="39.699407" lon="-78.65559">
        <ele>361.961796</ele>
        <time>2026-07-12T09:43:07.000Z</time>
      </trkpt>
      <trkpt lat="39.699414" lon="-78.655719">
        <ele>361.699104</ele>
        <time>2026-07-12T09:43:08.000Z</time>
      </trkpt>
      <trkpt lat="39.699361" lon="-78.655872">
        <ele>361.351391</ele>
        <time>2026-07-12T09:43:09.000Z</time>
      </trkpt>
      <trkpt lat="39.69931" lon="-78.656042">
        <ele>361.011884</ele>
        <time>2026-07-12T09:43:11.000Z</time>
      </trkpt>
      <trkpt lat="39.699251" lon="-78.656008">
        <ele>360.849452</ele>
        <time>2026-07-12T09:43:12.000Z</time>
      </trkpt>
      <trkpt lat="39.699142" lon="-78.656254">
        <ele>360.281571</ele>
        <time>2026-07-12T09:43:14.000Z</time>
      </trkpt>
      <trkpt lat="39.698958" lon="-78.656569">
        <ele>359.489237</ele>
        <time>2026-07-12T09:43:17.000Z</time>
      </trkpt>
      <trkpt lat="39.698645" lon="-78.656912">
        <ele>358.472661</ele>
        <time>2026-07-12T09:43:22.000Z</time>
      </trkpt>
      <trkpt lat="39.69858" lon="-78.656991">
        <ele>358.241166</ele>
        <time>2026-07-12T09:43:23.000Z</time>
      </trkpt>
      <trkpt lat="39.696686" lon="-78.65912">
        <ele>357.378882</ele>
        <time>2026-07-12T09:43:51.000Z</time>
      </trkpt>
      <trkpt lat="39.696611" lon="-78.659214">
        <ele>357.790141</ele>
        <time>2026-07-12T09:43:52.000Z</time>
      </trkpt>
      <trkpt lat="39.696518" lon="-78.659485">
        <ele>358.79616</ele>
        <time>2026-07-12T09:43:55.000Z</time>
      </trkpt>
      <trkpt lat="39.696471" lon="-78.659773">
        <ele>359.750218</ele>
        <time>2026-07-12T09:43:58.000Z</time>
      </trkpt>
      <trkpt lat="39.696496" lon="-78.659958">
        <ele>360.427235</ele>
        <time>2026-07-12T09:44:00.000Z</time>
      </trkpt>
      <trkpt lat="39.69658" lon="-78.660577">
        <ele>362.464159</ele>
        <time>2026-07-12T09:44:05.000Z</time>
      </trkpt>
      <trkpt lat="39.696564" lon="-78.660916">
        <ele>363.289338</ele>
        <time>2026-07-12T09:44:08.000Z</time>
      </trkpt>
      <trkpt lat="39.696437" lon="-78.661372">
        <ele>364.401037</ele>
        <time>2026-07-12T09:44:12.000Z</time>
      </trkpt>
      <trkpt lat="39.696352" lon="-78.661713">
        <ele>365.249938</ele>
        <time>2026-07-12T09:44:15.000Z</time>
      </trkpt>
      <trkpt lat="39.696129" lon="-78.663775">
        <ele>367.850268</ele>
        <time>2026-07-12T09:44:33.000Z</time>
      </trkpt>
      <trkpt lat="39.696112" lon="-78.663863">
        <ele>367.839875</ele>
        <time>2026-07-12T09:44:34.000Z</time>
      </trkpt>
      <trkpt lat="39.696098" lon="-78.663967">
        <ele>367.826283</ele>
        <time>2026-07-12T09:44:35.000Z</time>
      </trkpt>
      <trkpt lat="39.696055" lon="-78.664318">
        <ele>367.783221</ele>
        <time>2026-07-12T09:44:38.000Z</time>
      </trkpt>
      <trkpt lat="39.696381" lon="-78.664369">
        <ele>367.73163</ele>
        <time>2026-07-12T09:44:42.000Z</time>
      </trkpt>
      <trkpt lat="39.696622" lon="-78.664464">
        <ele>367.690595</ele>
        <time>2026-07-12T09:44:45.000Z</time>
      </trkpt>
      <trkpt lat="39.697016" lon="-78.664686">
        <ele>367.95383</ele>
        <time>2026-07-12T09:44:50.000Z</time>
      </trkpt>
      <trkpt lat="39.697163" lon="-78.664749">
        <ele>368.095705</ele>
        <time>2026-07-12T09:44:52.000Z</time>
      </trkpt>
      <trkpt lat="39.697427" lon="-78.664766">
        <ele>368.311337</ele>
        <time>2026-07-12T09:44:55.000Z</time>
      </trkpt>
      <trkpt lat="39.6976" lon="-78.664722">
        <ele>368.462515</ele>
        <time>2026-07-12T09:44:57.000Z</time>
      </trkpt>
      <trkpt lat="39.697781" lon="-78.664666">
        <ele>368.620234</ele>
        <time>2026-07-12T09:44:59.000Z</time>
      </trkpt>
      <trkpt lat="39.698054" lon="-78.664437">
        <ele>368.902609</ele>
        <time>2026-07-12T09:45:03.000Z</time>
      </trkpt>
      <trkpt lat="39.698196" lon="-78.664236">
        <ele>369.074469</ele>
        <time>2026-07-12T09:45:05.000Z</time>
      </trkpt>
      <trkpt lat="39.698294" lon="-78.664072">
        <ele>369.146907</ele>
        <time>2026-07-12T09:45:07.000Z</time>
      </trkpt>
      <trkpt lat="39.698419" lon="-78.663794">
        <ele>368.372517</ele>
        <time>2026-07-12T09:45:10.000Z</time>
      </trkpt>
      <trkpt lat="39.698547" lon="-78.663594">
        <ele>367.766253</ele>
        <time>2026-07-12T09:45:12.000Z</time>
      </trkpt>
      <trkpt lat="39.698698" lon="-78.663352">
        <ele>367.056809</ele>
        <time>2026-07-12T09:45:15.000Z</time>
      </trkpt>
      <trkpt lat="39.698979" lon="-78.663068">
        <ele>365.932788</ele>
        <time>2026-07-12T09:45:19.000Z</time>
      </trkpt>
      <trkpt lat="39.699222" lon="-78.662925">
        <ele>365.154798</ele>
        <time>2026-07-12T09:45:22.000Z</time>
      </trkpt>
      <trkpt lat="39.699434" lon="-78.662846">
        <ele>364.443139</ele>
        <time>2026-07-12T09:45:24.000Z</time>
      </trkpt>
      <trkpt lat="39.699896" lon="-78.662756">
        <ele>362.961309</ele>
        <time>2026-07-12T09:45:29.000Z</time>
      </trkpt>
      <trkpt lat="39.700051" lon="-78.662657">
        <ele>362.45349</ele>
        <time>2026-07-12T09:45:31.000Z</time>
      </trkpt>
      <trkpt lat="39.700234" lon="-78.662386">
        <ele>361.555118</ele>
        <time>2026-07-12T09:45:34.000Z</time>
      </trkpt>
      <trkpt lat="39.700369" lon="-78.662229">
        <ele>360.98683</ele>
        <time>2026-07-12T09:45:36.000Z</time>
      </trkpt>
      <trkpt lat="39.700698" lon="-78.661971">
        <ele>359.750921</ele>
        <time>2026-07-12T09:45:40.000Z</time>
      </trkpt>
      <trkpt lat="39.701166" lon="-78.661768">
        <ele>358.186463</ele>
        <time>2026-07-12T09:45:45.000Z</time>
      </trkpt>
      <trkpt lat="39.701348" lon="-78.661474">
        <ele>357.970597</ele>
        <time>2026-07-12T09:45:48.000Z</time>
      </trkpt>
      <trkpt lat="39.701602" lon="-78.661433">
        <ele>358.018616</ele>
        <time>2026-07-12T09:45:51.000Z</time>
      </trkpt>
      <trkpt lat="39.701663" lon="-78.661432">
        <ele>358.028839</ele>
        <time>2026-07-12T09:45:52.000Z</time>
      </trkpt>
      <trkpt lat="39.701671" lon="-78.661314">
        <ele>358.044765</ele>
        <time>2026-07-12T09:45:53.000Z</time>
      </trkpt>
      <trkpt lat="39.702046" lon="-78.660469">
        <ele>358.181812</ele>
        <time>2026-07-12T09:46:01.000Z</time>
      </trkpt>
      <trkpt lat="39.702103" lon="-78.660426">
        <ele>358.194425</ele>
        <time>2026-07-12T09:46:02.000Z</time>
      </trkpt>
      <trkpt lat="39.702235" lon="-78.660218">
        <ele>358.233871</ele>
        <time>2026-07-12T09:46:04.000Z</time>
      </trkpt>
      <trkpt lat="39.702303" lon="-78.660098">
        <ele>358.253622</ele>
        <time>2026-07-12T09:46:05.000Z</time>
      </trkpt>
      <trkpt lat="39.702421" lon="-78.659927">
        <ele>358.226586</ele>
        <time>2026-07-12T09:46:07.000Z</time>
      </trkpt>
      <trkpt lat="39.702549" lon="-78.659823">
        <ele>358.189103</ele>
        <time>2026-07-12T09:46:09.000Z</time>
      </trkpt>
      <trkpt lat="39.702594" lon="-78.659739">
        <ele>358.171228</ele>
        <time>2026-07-12T09:46:10.000Z</time>
      </trkpt>
      <trkpt lat="39.702845" lon="-78.659502">
        <ele>358.092065</ele>
        <time>2026-07-12T09:46:13.000Z</time>
      </trkpt>
      <trkpt lat="39.702943" lon="-78.659267">
        <ele>358.039032</ele>
        <time>2026-07-12T09:46:15.000Z</time>
      </trkpt>
      <trkpt lat="39.703101" lon="-78.659129">
        <ele>357.994083</ele>
        <time>2026-07-12T09:46:17.000Z</time>
      </trkpt>
      <trkpt lat="39.703242" lon="-78.658932">
        <ele>357.940258</ele>
        <time>2026-07-12T09:46:19.000Z</time>
      </trkpt>
      <trkpt lat="39.703497" lon="-78.658734">
        <ele>357.8683</ele>
        <time>2026-07-12T09:46:22.000Z</time>
      </trkpt>
      <trkpt lat="39.703891" lon="-78.65833">
        <ele>357.751023</ele>
        <time>2026-07-12T09:46:28.000Z</time>
      </trkpt>
      <trkpt lat="39.703933" lon="-78.658204">
        <ele>357.727639</ele>
        <time>2026-07-12T09:46:29.000Z</time>
      </trkpt>
      <trkpt lat="39.704073" lon="-78.657992">
        <ele>357.68112</ele>
        <time>2026-07-12T09:46:31.000Z</time>
      </trkpt>
      <trkpt lat="39.70429" lon="-78.657557">
        <ele>357.594867</ele>
        <time>2026-07-12T09:46:35.000Z</time>
      </trkpt>
      <trkpt lat="39.70442" lon="-78.657341">
        <ele>357.547767</ele>
        <time>2026-07-12T09:46:37.000Z</time>
      </trkpt>
      <trkpt lat="39.704494" lon="-78.65714">
        <ele>357.508892</ele>
        <time>2026-07-12T09:46:39.000Z</time>
      </trkpt>
      <trkpt lat="39.704484" lon="-78.656906">
        <ele>357.469626</ele>
        <time>2026-07-12T09:46:41.000Z</time>
      </trkpt>
      <trkpt lat="39.704502" lon="-78.656755">
        <ele>357.446244</ele>
        <time>2026-07-12T09:46:42.000Z</time>
      </trkpt>
      <trkpt lat="39.704618" lon="-78.656576">
        <ele>357.491649</ele>
        <time>2026-07-12T09:46:44.000Z</time>
      </trkpt>
      <trkpt lat="39.705142" lon="-78.655213">
        <ele>359.16946</ele>
        <time>2026-07-12T09:46:57.000Z</time>
      </trkpt>
      <trkpt lat="39.705254" lon="-78.655017">
        <ele>359.42417</ele>
        <time>2026-07-12T09:46:59.000Z</time>
      </trkpt>
      <trkpt lat="39.705369" lon="-78.654922">
        <ele>359.626606</ele>
        <time>2026-07-12T09:47:01.000Z</time>
      </trkpt>
      <trkpt lat="39.706044" lon="-78.654783">
        <ele>360.281086</ele>
        <time>2026-07-12T09:47:09.000Z</time>
      </trkpt>
      <trkpt lat="39.706291" lon="-78.65482">
        <ele>360.460161</ele>
        <time>2026-07-12T09:47:12.000Z</time>
      </trkpt>
      <trkpt lat="39.706367" lon="-78.654847">
        <ele>360.514857</ele>
        <time>2026-07-12T09:47:13.000Z</time>
      </trkpt>
      <trkpt lat="39.706405" lon="-78.655046">
        <ele>360.633558</ele>
        <time>2026-07-12T09:47:15.000Z</time>
      </trkpt>
      <trkpt lat="39.706442" lon="-78.655109">
        <ele>360.674503</ele>
        <time>2026-07-12T09:47:16.000Z</time>
      </trkpt>
      <trkpt lat="39.706518" lon="-78.655112">
        <ele>360.719437</ele>
        <time>2026-07-12T09:47:17.000Z</time>
      </trkpt>
      <trkpt lat="39.706576" lon="-78.655114">
        <ele>360.772253</ele>
        <time>2026-07-12T09:47:18.000Z</time>
      </trkpt>
      <trkpt lat="39.706616" lon="-78.655056">
        <ele>360.814284</ele>
        <time>2026-07-12T09:47:19.000Z</time>
      </trkpt>
      <trkpt lat="39.706671" lon="-78.654568">
        <ele>361.08831</ele>
        <time>2026-07-12T09:47:23.000Z</time>
      </trkpt>
      <trkpt lat="39.706655" lon="-78.654478">
        <ele>361.137083</ele>
        <time>2026-07-12T09:47:24.000Z</time>
      </trkpt>
      <trkpt lat="39.706442" lon="-78.654308">
        <ele>361.198379</ele>
        <time>2026-07-12T09:47:27.000Z</time>
      </trkpt>
      <trkpt lat="39.706149" lon="-78.654189">
        <ele>360.936492</ele>
        <time>2026-07-12T09:47:30.000Z</time>
      </trkpt>
      <trkpt lat="39.705976" lon="-78.654167">
        <ele>360.793862</ele>
        <time>2026-07-12T09:47:32.000Z</time>
      </trkpt>
      <trkpt lat="39.705682" lon="-78.654004">
        <ele>360.525965</ele>
        <time>2026-07-12T09:47:36.000Z</time>
      </trkpt>
      <trkpt lat="39.705598" lon="-78.653958">
        <ele>360.450301</ele>
        <time>2026-07-12T09:47:37.000Z</time>
      </trkpt>
      <trkpt lat="39.705572" lon="-78.65388">
        <ele>360.395128</ele>
        <time>2026-07-12T09:47:38.000Z</time>
      </trkpt>
      <trkpt lat="39.705603" lon="-78.653706">
        <ele>360.279843</ele>
        <time>2026-07-12T09:47:40.000Z</time>
      </trkpt>
      <trkpt lat="39.70566" lon="-78.653635">
        <ele>360.220029</ele>
        <time>2026-07-12T09:47:41.000Z</time>
      </trkpt>
      <trkpt lat="39.705794" lon="-78.653608">
        <ele>360.102313</ele>
        <time>2026-07-12T09:47:43.000Z</time>
      </trkpt>
      <trkpt lat="39.706054" lon="-78.65373">
        <ele>359.877715</ele>
        <time>2026-07-12T09:47:46.000Z</time>
      </trkpt>
      <trkpt lat="39.706263" lon="-78.65376">
        <ele>359.834776</ele>
        <time>2026-07-12T09:47:48.000Z</time>
      </trkpt>
      <trkpt lat="39.706506" lon="-78.653843">
        <ele>360.034099</ele>
        <time>2026-07-12T09:47:51.000Z</time>
      </trkpt>
      <trkpt lat="39.706663" lon="-78.653979">
        <ele>360.177137</ele>
        <time>2026-07-12T09:47:53.000Z</time>
      </trkpt>
      <trkpt lat="39.706891" lon="-78.654238">
        <ele>360.415976</ele>
        <time>2026-07-12T09:47:56.000Z</time>
      </trkpt>
      <trkpt lat="39.707152" lon="-78.654289">
        <ele>360.625344</ele>
        <time>2026-07-12T09:47:59.000Z</time>
      </trkpt>
      <trkpt lat="39.707212" lon="-78.654262">
        <ele>360.680588</ele>
        <time>2026-07-12T09:48:00.000Z</time>
      </trkpt>
      <trkpt lat="39.707252" lon="-78.654181">
        <ele>360.736566</ele>
        <time>2026-07-12T09:48:01.000Z</time>
      </trkpt>
      <trkpt lat="39.707258" lon="-78.654118">
        <ele>360.785621</ele>
        <time>2026-07-12T09:48:02.000Z</time>
      </trkpt>
      <trkpt lat="39.707123" lon="-78.653877">
        <ele>360.959258</ele>
        <time>2026-07-12T09:48:05.000Z</time>
      </trkpt>
      <trkpt lat="39.707103" lon="-78.653828">
        <ele>361.00064</ele>
        <time>2026-07-12T09:48:05.000Z</time>
      </trkpt>
      <trkpt lat="39.707132" lon="-78.653755">
        <ele>361.046502</ele>
        <time>2026-07-12T09:48:06.000Z</time>
      </trkpt>
      <trkpt lat="39.707288" lon="-78.653673">
        <ele>361.178516</ele>
        <time>2026-07-12T09:48:08.000Z</time>
      </trkpt>
      <trkpt lat="39.707353" lon="-78.653544">
        <ele>361.038365</ele>
        <time>2026-07-12T09:48:09.000Z</time>
      </trkpt>
      <trkpt lat="39.70753" lon="-78.653457">
        <ele>360.685839</ele>
        <time>2026-07-12T09:48:11.000Z</time>
      </trkpt>
      <trkpt lat="39.707557" lon="-78.653366">
        <ele>360.561158</ele>
        <time>2026-07-12T09:48:12.000Z</time>
      </trkpt>
      <trkpt lat="39.70754" lon="-78.653297">
        <ele>360.453499</ele>
        <time>2026-07-12T09:48:13.000Z</time>
      </trkpt>
      <trkpt lat="39.707481" lon="-78.653264">
        <ele>360.342249</ele>
        <time>2026-07-12T09:48:14.000Z</time>
      </trkpt>
      <trkpt lat="39.707425" lon="-78.653271">
        <ele>360.234378</ele>
        <time>2026-07-12T09:48:15.000Z</time>
      </trkpt>
      <trkpt lat="39.707305" lon="-78.653407">
        <ele>359.936952</ele>
        <time>2026-07-12T09:48:17.000Z</time>
      </trkpt>
      <trkpt lat="39.70724" lon="-78.653422">
        <ele>359.81773</ele>
        <time>2026-07-12T09:48:18.000Z</time>
      </trkpt>
      <trkpt lat="39.707078" lon="-78.653352">
        <ele>359.531304</ele>
        <time>2026-07-12T09:48:20.000Z</time>
      </trkpt>
      <trkpt lat="39.706931" lon="-78.653254">
        <ele>359.210211</ele>
        <time>2026-07-12T09:48:22.000Z</time>
      </trkpt>
      <trkpt lat="39.706865" lon="-78.653153">
        <ele>359.029708</ele>
        <time>2026-07-12T09:48:23.000Z</time>
      </trkpt>
      <trkpt lat="39.706769" lon="-78.652796">
        <ele>358.509562</ele>
        <time>2026-07-12T09:48:26.000Z</time>
      </trkpt>
      <trkpt lat="39.706726" lon="-78.652734">
        <ele>358.404006</ele>
        <time>2026-07-12T09:48:27.000Z</time>
      </trkpt>
      <trkpt lat="39.706482" lon="-78.652717">
        <ele>357.960862</ele>
        <time>2026-07-12T09:48:30.000Z</time>
      </trkpt>
      <trkpt lat="39.706315" lon="-78.652656">
        <ele>357.881561</ele>
        <time>2026-07-12T09:48:32.000Z</time>
      </trkpt>
      <trkpt lat="39.706294" lon="-78.652647">
        <ele>357.878187</ele>
        <time>2026-07-12T09:48:32.000Z</time>
      </trkpt>
      <trkpt lat="39.706184" lon="-78.652572">
        <ele>357.818329</ele>
        <time>2026-07-12T09:48:33.000Z</time>
      </trkpt>
      <trkpt lat="39.706" lon="-78.652363">
        <ele>357.712962</ele>
        <time>2026-07-12T09:48:36.000Z</time>
      </trkpt>
      <trkpt lat="39.705925" lon="-78.6523">
        <ele>357.669612</ele>
        <time>2026-07-12T09:48:37.000Z</time>
      </trkpt>
      <trkpt lat="39.705721" lon="-78.652229">
        <ele>357.578343</ele>
        <time>2026-07-12T09:48:39.000Z</time>
      </trkpt>
      <trkpt lat="39.705719" lon="-78.652163">
        <ele>357.551266</ele>
        <time>2026-07-12T09:48:40.000Z</time>
      </trkpt>
      <trkpt lat="39.705847" lon="-78.651902">
        <ele>357.447156</ele>
        <time>2026-07-12T09:48:43.000Z</time>
      </trkpt>
      <trkpt lat="39.705907" lon="-78.651848">
        <ele>357.418922</ele>
        <time>2026-07-12T09:48:44.000Z</time>
      </trkpt>
      <trkpt lat="39.706143" lon="-78.651938">
        <ele>357.30799</ele>
        <time>2026-07-12T09:48:47.000Z</time>
      </trkpt>
      <trkpt lat="39.706404" lon="-78.652012">
        <ele>357.18971</ele>
        <time>2026-07-12T09:48:50.000Z</time>
      </trkpt>
      <trkpt lat="39.706632" lon="-78.652032">
        <ele>357.453783</ele>
        <time>2026-07-12T09:48:53.000Z</time>
      </trkpt>
      <trkpt lat="39.706773" lon="-78.652148">
        <ele>357.753091</ele>
        <time>2026-07-12T09:48:55.000Z</time>
      </trkpt>
      <trkpt lat="39.706918" lon="-78.652198">
        <ele>357.994511</ele>
        <time>2026-07-12T09:48:57.000Z</time>
      </trkpt>
      <trkpt lat="39.707499" lon="-78.652157">
        <ele>358.952734</ele>
        <time>2026-07-12T09:49:03.000Z</time>
      </trkpt>
      <trkpt lat="39.707722" lon="-78.652021">
        <ele>359.373163</ele>
        <time>2026-07-12T09:49:06.000Z</time>
      </trkpt>
      <trkpt lat="39.707972" lon="-78.651998">
        <ele>359.786002</ele>
        <time>2026-07-12T09:49:09.000Z</time>
      </trkpt>
      <trkpt lat="39.708033" lon="-78.65189">
        <ele>359.967492</ele>
        <time>2026-07-12T09:49:10.000Z</time>
      </trkpt>
      <trkpt lat="39.708081" lon="-78.651763">
        <ele>360.147452</ele>
        <time>2026-07-12T09:49:11.000Z</time>
      </trkpt>
      <trkpt lat="39.708324" lon="-78.651505">
        <ele>361.529271</ele>
        <time>2026-07-12T09:49:14.000Z</time>
      </trkpt>
      <trkpt lat="39.708383" lon="-78.651257">
        <ele>362.515031</ele>
        <time>2026-07-12T09:49:16.000Z</time>
      </trkpt>
      <trkpt lat="39.708387" lon="-78.651228">
        <ele>362.622944</ele>
        <time>2026-07-12T09:49:16.000Z</time>
      </trkpt>
      <trkpt lat="39.708641" lon="-78.651199">
        <ele>363.790525</ele>
        <time>2026-07-12T09:49:19.000Z</time>
      </trkpt>
      <trkpt lat="39.708792" lon="-78.651057">
        <ele>364.612137</ele>
        <time>2026-07-12T09:49:21.000Z</time>
      </trkpt>
      <trkpt lat="39.708833" lon="-78.650979">
        <ele>364.993889</ele>
        <time>2026-07-12T09:49:22.000Z</time>
      </trkpt>
      <trkpt lat="39.708848" lon="-78.650891">
        <ele>365.306053</ele>
        <time>2026-07-12T09:49:23.000Z</time>
      </trkpt>
      <trkpt lat="39.7088" lon="-78.650591">
        <ele>366.3649</ele>
        <time>2026-07-12T09:49:26.000Z</time>
      </trkpt>
      <trkpt lat="39.708813" lon="-78.650472">
        <ele>366.823404</ele>
        <time>2026-07-12T09:49:27.000Z</time>
      </trkpt>
      <trkpt lat="39.708903" lon="-78.650084">
        <ele>368.257556</ele>
        <time>2026-07-12T09:49:30.000Z</time>
      </trkpt>
      <trkpt lat="39.7093" lon="-78.649792">
        <ele>369.908354</ele>
        <time>2026-07-12T09:49:35.000Z</time>
      </trkpt>
      <trkpt lat="39.709599" lon="-78.649879">
        <ele>370.950408</ele>
        <time>2026-07-12T09:49:38.000Z</time>
      </trkpt>
      <trkpt lat="39.709674" lon="-78.649702">
        <ele>371.467463</ele>
        <time>2026-07-12T09:49:40.000Z</time>
      </trkpt>
      <trkpt lat="39.70981" lon="-78.649528">
        <ele>372.148615</ele>
        <time>2026-07-12T09:49:42.000Z</time>
      </trkpt>
      <trkpt lat="39.710304" lon="-78.6492">
        <ele>374.049226</ele>
        <time>2026-07-12T09:49:48.000Z</time>
      </trkpt>
      <trkpt lat="39.710531" lon="-78.649496">
        <ele>375.389105</ele>
        <time>2026-07-12T09:49:52.000Z</time>
      </trkpt>
      <trkpt lat="39.710937" lon="-78.649962">
        <ele>378.39564</ele>
        <time>2026-07-12T09:49:58.000Z</time>
      </trkpt>
      <trkpt lat="39.711082" lon="-78.650085">
        <ele>379.394532</ele>
        <time>2026-07-12T09:50:00.000Z</time>
      </trkpt>
      <trkpt lat="39.711247" lon="-78.650187">
        <ele>380.381095</ele>
        <time>2026-07-12T09:50:02.000Z</time>
      </trkpt>
      <trkpt lat="39.711585" lon="-78.650297">
        <ele>382.247055</ele>
        <time>2026-07-12T09:50:06.000Z</time>
      </trkpt>
      <trkpt lat="39.71179" lon="-78.650424">
        <ele>383.535288</ele>
        <time>2026-07-12T09:50:09.000Z</time>
      </trkpt>
      <trkpt lat="39.71187" lon="-78.650526">
        <ele>384.124689</ele>
        <time>2026-07-12T09:50:10.000Z</time>
      </trkpt>
      <trkpt lat="39.711913" lon="-78.650681">
        <ele>384.727686</ele>
        <time>2026-07-12T09:50:11.000Z</time>
      </trkpt>
      <trkpt lat="39.711926" lon="-78.650818">
        <ele>385.187198</ele>
        <time>2026-07-12T09:50:12.000Z</time>
      </trkpt>
      <trkpt lat="39.711928" lon="-78.650826">
        <ele>385.200959</ele>
        <time>2026-07-12T09:50:12.000Z</time>
      </trkpt>
      <trkpt lat="39.711879" lon="-78.651114">
        <ele>386.171166</ele>
        <time>2026-07-12T09:50:15.000Z</time>
      </trkpt>
      <trkpt lat="39.711633" lon="-78.651617">
        <ele>388.08651</ele>
        <time>2026-07-12T09:50:20.000Z</time>
      </trkpt>
      <trkpt lat="39.712074" lon="-78.652498">
        <ele>391.486323</ele>
        <time>2026-07-12T09:50:29.000Z</time>
      </trkpt>
      <trkpt lat="39.712111" lon="-78.65255">
        <ele>391.745457</ele>
        <time>2026-07-12T09:50:30.000Z</time>
      </trkpt>
      <trkpt lat="39.712118" lon="-78.652668">
        <ele>392.107118</ele>
        <time>2026-07-12T09:50:31.000Z</time>
      </trkpt>
      <trkpt lat="39.712009" lon="-78.652748">
        <ele>392.010882</ele>
        <time>2026-07-12T09:50:32.000Z</time>
      </trkpt>
      <trkpt lat="39.711346" lon="-78.652957">
        <ele>390.961879</ele>
        <time>2026-07-12T09:50:40.000Z</time>
      </trkpt>
      <trkpt lat="39.711094" lon="-78.653057">
        <ele>390.557713</ele>
        <time>2026-07-12T09:50:43.000Z</time>
      </trkpt>
      <trkpt lat="39.710746" lon="-78.653401">
        <ele>389.906657</ele>
        <time>2026-07-12T09:50:48.000Z</time>
      </trkpt>
      <trkpt lat="39.709789" lon="-78.654144">
        <ele>389.245274</ele>
        <time>2026-07-12T09:51:00.000Z</time>
      </trkpt>
      <trkpt lat="39.70953" lon="-78.654225">
        <ele>389.174784</ele>
        <time>2026-07-12T09:51:03.000Z</time>
      </trkpt>
      <trkpt lat="39.709038" lon="-78.654616">
        <ele>389.030499</ele>
        <time>2026-07-12T09:51:09.000Z</time>
      </trkpt>
      <trkpt lat="39.708788" lon="-78.654768">
        <ele>388.525364</ele>
        <time>2026-07-12T09:51:12.000Z</time>
      </trkpt>
      <trkpt lat="39.708597" lon="-78.654927">
        <ele>387.76886</ele>
        <time>2026-07-12T09:51:15.000Z</time>
      </trkpt>
      <trkpt lat="39.708294" lon="-78.655259">
        <ele>386.403488</ele>
        <time>2026-07-12T09:51:19.000Z</time>
      </trkpt>
      <trkpt lat="39.707731" lon="-78.655693">
        <ele>384.100351</ele>
        <time>2026-07-12T09:51:26.000Z</time>
      </trkpt>
      <trkpt lat="39.707608" lon="-78.65587">
        <ele>383.475909</ele>
        <time>2026-07-12T09:51:28.000Z</time>
      </trkpt>
      <trkpt lat="39.70724" lon="-78.656225">
        <ele>382.966258</ele>
        <time>2026-07-12T09:51:33.000Z</time>
      </trkpt>
      <trkpt lat="39.706398" lon="-78.65671">
        <ele>383.759499</ele>
        <time>2026-07-12T09:51:43.000Z</time>
      </trkpt>
      <trkpt lat="39.706263" lon="-78.656841">
        <ele>383.892536</ele>
        <time>2026-07-12T09:51:45.000Z</time>
      </trkpt>
      <trkpt lat="39.706207" lon="-78.656988">
        <ele>383.995995</ele>
        <time>2026-07-12T09:51:46.000Z</time>
      </trkpt>
      <trkpt lat="39.706266" lon="-78.657298">
        <ele>384.213352</ele>
        <time>2026-07-12T09:51:49.000Z</time>
      </trkpt>
      <trkpt lat="39.706466" lon="-78.657121">
        <ele>384.865656</ele>
        <time>2026-07-12T09:51:52.000Z</time>
      </trkpt>
      <trkpt lat="39.706545" lon="-78.657019">
        <ele>385.306293</ele>
        <time>2026-07-12T09:51:53.000Z</time>
      </trkpt>
      <trkpt lat="39.706852" lon="-78.656725">
        <ele>386.752631</ele>
        <time>2026-07-12T09:51:57.000Z</time>
      </trkpt>
      <trkpt lat="39.707103" lon="-78.656695">
        <ele>387.762056</ele>
        <time>2026-07-12T09:52:00.000Z</time>
      </trkpt>
      <trkpt lat="39.707456" lon="-78.656754">
        <ele>389.163116</ele>
        <time>2026-07-12T09:52:04.000Z</time>
      </trkpt>
      <trkpt lat="39.707615" lon="-78.656814">
        <ele>389.846592</ele>
        <time>2026-07-12T09:52:06.000Z</time>
      </trkpt>
      <trkpt lat="39.70792" lon="-78.65697">
        <ele>391.068628</ele>
        <time>2026-07-12T09:52:10.000Z</time>
      </trkpt>
      <trkpt lat="39.70802" lon="-78.656969">
        <ele>391.525556</ele>
        <time>2026-07-12T09:52:11.000Z</time>
      </trkpt>
      <trkpt lat="39.708093" lon="-78.656925">
        <ele>392.072871</ele>
        <time>2026-07-12T09:52:12.000Z</time>
      </trkpt>
      <trkpt lat="39.708159" lon="-78.656822">
        <ele>392.635336</ele>
        <time>2026-07-12T09:52:13.000Z</time>
      </trkpt>
      <trkpt lat="39.70819" lon="-78.65653">
        <ele>394.001465</ele>
        <time>2026-07-12T09:52:16.000Z</time>
      </trkpt>
      <trkpt lat="39.708203" lon="-78.656453">
        <ele>394.321681</ele>
        <time>2026-07-12T09:52:17.000Z</time>
      </trkpt>
      <trkpt lat="39.708541" lon="-78.656208">
        <ele>396.591318</ele>
        <time>2026-07-12T09:52:21.000Z</time>
      </trkpt>
      <trkpt lat="39.708952" lon="-78.655598">
        <ele>400.154834</ele>
        <time>2026-07-12T09:52:28.000Z</time>
      </trkpt>
      <trkpt lat="39.70906" lon="-78.65544">
        <ele>401.135696</ele>
        <time>2026-07-12T09:52:30.000Z</time>
      </trkpt>
      <trkpt lat="39.709059" lon="-78.655433">
        <ele>401.171253</ele>
        <time>2026-07-12T09:52:30.000Z</time>
      </trkpt>
      <trkpt lat="39.709258" lon="-78.655224">
        <ele>402.602738</ele>
        <time>2026-07-12T09:52:33.000Z</time>
      </trkpt>
      <trkpt lat="39.709457" lon="-78.655099">
        <ele>403.787443</ele>
        <time>2026-07-12T09:52:35.000Z</time>
      </trkpt>
      <trkpt lat="39.709448" lon="-78.655106">
        <ele>403.813225</ele>
        <time>2026-07-12T09:52:35.000Z</time>
      </trkpt>
      <trkpt lat="39.710327" lon="-78.654803">
        <ele>408.824093</ele>
        <time>2026-07-12T09:52:45.000Z</time>
      </trkpt>
      <trkpt lat="39.710637" lon="-78.654761">
        <ele>410.628072</ele>
        <time>2026-07-12T09:52:48.000Z</time>
      </trkpt>
      <trkpt lat="39.71089" lon="-78.654786">
        <ele>412.016012</ele>
        <time>2026-07-12T09:52:51.000Z</time>
      </trkpt>
      <trkpt lat="39.711896" lon="-78.654783">
        <ele>417.287793</ele>
        <time>2026-07-12T09:53:02.000Z</time>
      </trkpt>
      <trkpt lat="39.712169" lon="-78.654883">
        <ele>418.794978</ele>
        <time>2026-07-12T09:53:05.000Z</time>
      </trkpt>
      <trkpt lat="39.712387" lon="-78.654904">
        <ele>419.926796</ele>
        <time>2026-07-12T09:53:07.000Z</time>
      </trkpt>
      <trkpt lat="39.712861" lon="-78.654864">
        <ele>422.027023</ele>
        <time>2026-07-12T09:53:12.000Z</time>
      </trkpt>
      <trkpt lat="39.712922" lon="-78.654817">
        <ele>422.248502</ele>
        <time>2026-07-12T09:53:13.000Z</time>
      </trkpt>
      <trkpt lat="39.713023" lon="-78.654592">
        <ele>422.943844</ele>
        <time>2026-07-12T09:53:15.000Z</time>
      </trkpt>
      <trkpt lat="39.713138" lon="-78.654488">
        <ele>423.44357</ele>
        <time>2026-07-12T09:53:17.000Z</time>
      </trkpt>
      <trkpt lat="39.713376" lon="-78.654389">
        <ele>424.313029</ele>
        <time>2026-07-12T09:53:20.000Z</time>
      </trkpt>
      <trkpt lat="39.713782" lon="-78.654409">
        <ele>425.68386</ele>
        <time>2026-07-12T09:53:25.000Z</time>
      </trkpt>
      <trkpt lat="39.713842" lon="-78.65435">
        <ele>426.00003</ele>
        <time>2026-07-12T09:53:26.000Z</time>
      </trkpt>
      <trkpt lat="39.714009" lon="-78.654128">
        <ele>426.803145</ele>
        <time>2026-07-12T09:53:29.000Z</time>
      </trkpt>
      <trkpt lat="39.714083" lon="-78.65407">
        <ele>427.131167</ele>
        <time>2026-07-12T09:53:30.000Z</time>
      </trkpt>
      <trkpt lat="39.714488" lon="-78.65392">
        <ele>428.302038</ele>
        <time>2026-07-12T09:53:35.000Z</time>
      </trkpt>
      <trkpt lat="39.714852" lon="-78.6537">
        <ele>429.314559</ele>
        <time>2026-07-12T09:53:39.000Z</time>
      </trkpt>
      <trkpt lat="39.71555" lon="-78.653154">
        <ele>431.428837</ele>
        <time>2026-07-12T09:53:48.000Z</time>
      </trkpt>
      <trkpt lat="39.715676" lon="-78.65293">
        <ele>431.983114</ele>
        <time>2026-07-12T09:53:50.000Z</time>
      </trkpt>
      <trkpt lat="39.716339" lon="-78.652121">
        <ele>426.216528</ele>
        <time>2026-07-12T09:54:00.000Z</time>
      </trkpt>
      <trkpt lat="39.716542" lon="-78.651822">
        <ele>424.067217</ele>
        <time>2026-07-12T09:54:03.000Z</time>
      </trkpt>
      <trkpt lat="39.716549" lon="-78.651772">
        <ele>423.792547</ele>
        <time>2026-07-12T09:54:03.000Z</time>
      </trkpt>
      <trkpt lat="39.716475" lon="-78.651437">
        <ele>421.953469</ele>
        <time>2026-07-12T09:54:06.000Z</time>
      </trkpt>
      <trkpt lat="39.716454" lon="-78.651312">
        <ele>421.230489</ele>
        <time>2026-07-12T09:54:07.000Z</time>
      </trkpt>
      <trkpt lat="39.716325" lon="-78.651079">
        <ele>419.683237</ele>
        <time>2026-07-12T09:54:09.000Z</time>
      </trkpt>
      <trkpt lat="39.716139" lon="-78.650834">
        <ele>416.719373</ele>
        <time>2026-07-12T09:54:12.000Z</time>
      </trkpt>
      <trkpt lat="39.716014" lon="-78.650623">
        <ele>414.412689</ele>
        <time>2026-07-12T09:54:14.000Z</time>
      </trkpt>
      <trkpt lat="39.715812" lon="-78.650389">
        <ele>411.19827</ele>
        <time>2026-07-12T09:54:17.000Z</time>
      </trkpt>
      <trkpt lat="39.715532" lon="-78.6502">
        <ele>407.531804</ele>
        <time>2026-07-12T09:54:21.000Z</time>
      </trkpt>
      <trkpt lat="39.715183" lon="-78.64978">
        <ele>402.127811</ele>
        <time>2026-07-12T09:54:26.000Z</time>
      </trkpt>
      <trkpt lat="39.715026" lon="-78.649546">
        <ele>399.218786</ele>
        <time>2026-07-12T09:54:29.000Z</time>
      </trkpt>
      <trkpt lat="39.71475" lon="-78.649037">
        <ele>395.768815</ele>
        <time>2026-07-12T09:54:34.000Z</time>
      </trkpt>
      <trkpt lat="39.714718" lon="-78.648913">
        <ele>395.087131</ele>
        <time>2026-07-12T09:54:35.000Z</time>
      </trkpt>
      <trkpt lat="39.714679" lon="-78.648772">
        <ele>394.242128</ele>
        <time>2026-07-12T09:54:36.000Z</time>
      </trkpt>
      <trkpt lat="39.714484" lon="-78.648171">
        <ele>390.758756</ele>
        <time>2026-07-12T09:54:42.000Z</time>
      </trkpt>
      <trkpt lat="39.714499" lon="-78.647971">
        <ele>389.693096</ele>
        <time>2026-07-12T09:54:44.000Z</time>
      </trkpt>
      <trkpt lat="39.714241" lon="-78.647723">
        <ele>387.505212</ele>
        <time>2026-07-12T09:54:48.000Z</time>
      </trkpt>
      <trkpt lat="39.713762" lon="-78.647479">
        <ele>385.765159</ele>
        <time>2026-07-12T09:54:54.000Z</time>
      </trkpt>
      <trkpt lat="39.713699" lon="-78.647405">
        <ele>385.670689</ele>
        <time>2026-07-12T09:54:55.000Z</time>
      </trkpt>
      <trkpt lat="39.713693" lon="-78.647261">
        <ele>385.517572</ele>
        <time>2026-07-12T09:54:56.000Z</time>
      </trkpt>
      <trkpt lat="39.713724" lon="-78.647201">
        <ele>385.437073</ele>
        <time>2026-07-12T09:54:57.000Z</time>
      </trkpt>
      <trkpt lat="39.713793" lon="-78.647153">
        <ele>385.34337</ele>
        <time>2026-07-12T09:54:58.000Z</time>
      </trkpt>
      <trkpt lat="39.713913" lon="-78.647109">
        <ele>385.159375</ele>
        <time>2026-07-12T09:54:59.000Z</time>
      </trkpt>
      <trkpt lat="39.714361" lon="-78.64717">
        <ele>384.563113</ele>
        <time>2026-07-12T09:55:04.000Z</time>
      </trkpt>
      <trkpt lat="39.714491" lon="-78.647152">
        <ele>384.373243</ele>
        <time>2026-07-12T09:55:05.000Z</time>
      </trkpt>
      <trkpt lat="39.71459" lon="-78.647094">
        <ele>384.23727</ele>
        <time>2026-07-12T09:55:06.000Z</time>
      </trkpt>
      <trkpt lat="39.715357" lon="-78.646178">
        <ele>382.477285</ele>
        <time>2026-07-12T09:55:18.000Z</time>
      </trkpt>
      <trkpt lat="39.715599" lon="-78.645989">
        <ele>381.949143</ele>
        <time>2026-07-12T09:55:21.000Z</time>
      </trkpt>
      <trkpt lat="39.715743" lon="-78.645949">
        <ele>381.677676</ele>
        <time>2026-07-12T09:55:23.000Z</time>
      </trkpt>
      <trkpt lat="39.715851" lon="-78.645963">
        <ele>381.489595</ele>
        <time>2026-07-12T09:55:24.000Z</time>
      </trkpt>
      <trkpt lat="39.715966" lon="-78.645686">
        <ele>381.047114</ele>
        <time>2026-07-12T09:55:27.000Z</time>
      </trkpt>
      <trkpt lat="39.716036" lon="-78.645586">
        <ele>380.846707</ele>
        <time>2026-07-12T09:55:28.000Z</time>
      </trkpt>
      <trkpt lat="39.716293" lon="-78.645387">
        <ele>379.92493</ele>
        <time>2026-07-12T09:55:31.000Z</time>
      </trkpt>
      <trkpt lat="39.716387" lon="-78.645225">
        <ele>379.196221</ele>
        <time>2026-07-12T09:55:33.000Z</time>
      </trkpt>
      <trkpt lat="39.716384" lon="-78.64506">
        <ele>378.512105</ele>
        <time>2026-07-12T09:55:34.000Z</time>
      </trkpt>
      <trkpt lat="39.716288" lon="-78.644823">
        <ele>377.468888</ele>
        <time>2026-07-12T09:55:36.000Z</time>
      </trkpt>
      <trkpt lat="39.716337" lon="-78.644756">
        <ele>377.095826</ele>
        <time>2026-07-12T09:55:37.000Z</time>
      </trkpt>
      <trkpt lat="39.717018" lon="-78.643888">
        <ele>372.155633</ele>
        <time>2026-07-12T09:55:48.000Z</time>
      </trkpt>
      <trkpt lat="39.717257" lon="-78.643618">
        <ele>370.644109</ele>
        <time>2026-07-12T09:55:52.000Z</time>
      </trkpt>
      <trkpt lat="39.717512" lon="-78.643405">
        <ele>369.176665</ele>
        <time>2026-07-12T09:55:55.000Z</time>
      </trkpt>
      <trkpt lat="39.717613" lon="-78.643279">
        <ele>368.551037</ele>
        <time>2026-07-12T09:55:57.000Z</time>
      </trkpt>
      <trkpt lat="39.717628" lon="-78.643277">
        <ele>368.533473</ele>
        <time>2026-07-12T09:55:57.000Z</time>
      </trkpt>
      <trkpt lat="39.717696" lon="-78.643184">
        <ele>368.04929</ele>
        <time>2026-07-12T09:55:58.000Z</time>
      </trkpt>
      <trkpt lat="39.717778" lon="-78.64292">
        <ele>367.056919</ele>
        <time>2026-07-12T09:56:00.000Z</time>
      </trkpt>
      <trkpt lat="39.717807" lon="-78.642624">
        <ele>365.953017</ele>
        <time>2026-07-12T09:56:03.000Z</time>
      </trkpt>
      <trkpt lat="39.717653" lon="-78.642201">
        <ele>364.33306</ele>
        <time>2026-07-12T09:56:07.000Z</time>
      </trkpt>
      <trkpt lat="39.717493" lon="-78.642047">
        <ele>363.41396</ele>
        <time>2026-07-12T09:56:09.000Z</time>
      </trkpt>
      <trkpt lat="39.717454" lon="-78.641984">
        <ele>363.106189</ele>
        <time>2026-07-12T09:56:10.000Z</time>
      </trkpt>
      <trkpt lat="39.717017" lon="-78.64157">
        <ele>361.505243</ele>
        <time>2026-07-12T09:56:16.000Z</time>
      </trkpt>
      <trkpt lat="39.716835" lon="-78.641359">
        <ele>360.776645</ele>
        <time>2026-07-12T09:56:19.000Z</time>
      </trkpt>
      <trkpt lat="39.716727" lon="-78.641218">
        <ele>360.345562</ele>
        <time>2026-07-12T09:56:21.000Z</time>
      </trkpt>
      <trkpt lat="39.716454" lon="-78.640657">
        <ele>358.875748</ele>
        <time>2026-07-12T09:56:27.000Z</time>
      </trkpt>
      <trkpt lat="39.716373" lon="-78.64054">
        <ele>358.508968</ele>
        <time>2026-07-12T09:56:28.000Z</time>
      </trkpt>
      <trkpt lat="39.716254" lon="-78.640419">
        <ele>358.097981</ele>
        <time>2026-07-12T09:56:30.000Z</time>
      </trkpt>
      <trkpt lat="39.715868" lon="-78.640242">
        <ele>358.047515</ele>
        <time>2026-07-12T09:56:35.000Z</time>
      </trkpt>
      <trkpt lat="39.71573" lon="-78.640155">
        <ele>358.21711</ele>
        <time>2026-07-12T09:56:37.000Z</time>
      </trkpt>
      <trkpt lat="39.715603" lon="-78.640024">
        <ele>358.405232</ele>
        <time>2026-07-12T09:56:39.000Z</time>
      </trkpt>
      <trkpt lat="39.715544" lon="-78.640055">
        <ele>358.482844</ele>
        <time>2026-07-12T09:56:40.000Z</time>
      </trkpt>
      <trkpt lat="39.715514" lon="-78.640061">
        <ele>358.523965</ele>
        <time>2026-07-12T09:56:40.000Z</time>
      </trkpt>
      <trkpt lat="39.715278" lon="-78.640229">
        <ele>358.827515</ele>
        <time>2026-07-12T09:56:43.000Z</time>
      </trkpt>
      <trkpt lat="39.714941" lon="-78.640343">
        <ele>359.218542</ele>
        <time>2026-07-12T09:56:47.000Z</time>
      </trkpt>
      <trkpt lat="39.7146" lon="-78.640563">
        <ele>359.663088</ele>
        <time>2026-07-12T09:56:51.000Z</time>
      </trkpt>
      <trkpt lat="39.714473" lon="-78.640714">
        <ele>359.949528</ele>
        <time>2026-07-12T09:56:53.000Z</time>
      </trkpt>
      <trkpt lat="39.714398" lon="-78.64074">
        <ele>360.144561</ele>
        <time>2026-07-12T09:56:54.000Z</time>
      </trkpt>
      <trkpt lat="39.714209" lon="-78.640711">
        <ele>360.569566</ele>
        <time>2026-07-12T09:56:56.000Z</time>
      </trkpt>
      <trkpt lat="39.713892" lon="-78.640768">
        <ele>361.36226</ele>
        <time>2026-07-12T09:57:00.000Z</time>
      </trkpt>
      <trkpt lat="39.713588" lon="-78.640734">
        <ele>362.105454</ele>
        <time>2026-07-12T09:57:03.000Z</time>
      </trkpt>
      <trkpt lat="39.713189" lon="-78.640559">
        <ele>363.092351</ele>
        <time>2026-07-12T09:57:08.000Z</time>
      </trkpt>
      <trkpt lat="39.712964" lon="-78.640523">
        <ele>363.648492</ele>
        <time>2026-07-12T09:57:11.000Z</time>
      </trkpt>
      <trkpt lat="39.711241" lon="-78.641145">
        <ele>363.651626</ele>
        <time>2026-07-12T09:57:31.000Z</time>
      </trkpt>
      <trkpt lat="39.711148" lon="-78.64126">
        <ele>363.613402</ele>
        <time>2026-07-12T09:57:32.000Z</time>
      </trkpt>
      <trkpt lat="39.710973" lon="-78.641405">
        <ele>363.342894</ele>
        <time>2026-07-12T09:57:34.000Z</time>
      </trkpt>
      <trkpt lat="39.710901" lon="-78.641506">
        <ele>363.120988</ele>
        <time>2026-07-12T09:57:35.000Z</time>
      </trkpt>
      <trkpt lat="39.710849" lon="-78.64164">
        <ele>362.911877</ele>
        <time>2026-07-12T09:57:36.000Z</time>
      </trkpt>
      <trkpt lat="39.710791" lon="-78.642416">
        <ele>361.818195</ele>
        <time>2026-07-12T09:57:43.000Z</time>
      </trkpt>
      <trkpt lat="39.710755" lon="-78.64245">
        <ele>361.728172</ele>
        <time>2026-07-12T09:57:43.000Z</time>
      </trkpt>
      <trkpt lat="39.7106" lon="-78.64243">
        <ele>361.455273</ele>
        <time>2026-07-12T09:57:45.000Z</time>
      </trkpt>
      <trkpt lat="39.710046" lon="-78.642122">
        <ele>360.339681</ele>
        <time>2026-07-12T09:57:52.000Z</time>
      </trkpt>
      <trkpt lat="39.709985" lon="-78.642102">
        <ele>360.217709</ele>
        <time>2026-07-12T09:57:53.000Z</time>
      </trkpt>
      <trkpt lat="39.709341" lon="-78.642259">
        <ele>359.369911</ele>
        <time>2026-07-12T09:58:00.000Z</time>
      </trkpt>
      <trkpt lat="39.709361" lon="-78.642559">
        <ele>359.081934</ele>
        <time>2026-07-12T09:58:03.000Z</time>
      </trkpt>
      <trkpt lat="39.709296" lon="-78.642646">
        <ele>358.959424</ele>
        <time>2026-07-12T09:58:04.000Z</time>
      </trkpt>
      <trkpt lat="39.7092" lon="-78.642664">
        <ele>358.829194</ele>
        <time>2026-07-12T09:58:05.000Z</time>
      </trkpt>
      <trkpt lat="39.709195" lon="-78.642924">
        <ele>358.564709</ele>
        <time>2026-07-12T09:58:07.000Z</time>
      </trkpt>
      <trkpt lat="39.709186" lon="-78.642929">
        <ele>358.529943</ele>
        <time>2026-07-12T09:58:07.000Z</time>
      </trkpt>
      <trkpt lat="39.708991" lon="-78.642906">
        <ele>358.285519</ele>
        <time>2026-07-12T09:58:09.000Z</time>
      </trkpt>
      <trkpt lat="39.708562" lon="-78.642951">
        <ele>358.037942</ele>
        <time>2026-07-12T09:58:14.000Z</time>
      </trkpt>
      <trkpt lat="39.70842" lon="-78.643013">
        <ele>358.167897</ele>
        <time>2026-07-12T09:58:16.000Z</time>
      </trkpt>
      <trkpt lat="39.708228" lon="-78.643033">
        <ele>358.31703</ele>
        <time>2026-07-12T09:58:18.000Z</time>
      </trkpt>
      <trkpt lat="39.708066" lon="-78.642918">
        <ele>358.460752</ele>
        <time>2026-07-12T09:58:20.000Z</time>
      </trkpt>
      <trkpt lat="39.707765" lon="-78.642548">
        <ele>358.807075</ele>
        <time>2026-07-12T09:58:25.000Z</time>
      </trkpt>
      <trkpt lat="39.707675" lon="-78.64256">
        <ele>358.868721</ele>
        <time>2026-07-12T09:58:26.000Z</time>
      </trkpt>
      <trkpt lat="39.707586" lon="-78.642587">
        <ele>358.945636</ele>
        <time>2026-07-12T09:58:27.000Z</time>
      </trkpt>
      <trkpt lat="39.70744" lon="-78.642944">
        <ele>359.20155</ele>
        <time>2026-07-12T09:58:30.000Z</time>
      </trkpt>
      <trkpt lat="39.707369" lon="-78.643055">
        <ele>359.290138</ele>
        <time>2026-07-12T09:58:31.000Z</time>
      </trkpt>
      <trkpt lat="39.707214" lon="-78.643171">
        <ele>359.633944</ele>
        <time>2026-07-12T09:58:33.000Z</time>
      </trkpt>
      <trkpt lat="39.706784" lon="-78.643404">
        <ele>361.499069</ele>
        <time>2026-07-12T09:58:38.000Z</time>
      </trkpt>
      <trkpt lat="39.706527" lon="-78.643365">
        <ele>362.513066</ele>
        <time>2026-07-12T09:58:41.000Z</time>
      </trkpt>
      <trkpt lat="39.706423" lon="-78.643377">
        <ele>362.873231</ele>
        <time>2026-07-12T09:58:42.000Z</time>
      </trkpt>
      <trkpt lat="39.706316" lon="-78.643435">
        <ele>363.360672</ele>
        <time>2026-07-12T09:58:43.000Z</time>
      </trkpt>
      <trkpt lat="39.70627" lon="-78.643492">
        <ele>363.605838</ele>
        <time>2026-07-12T09:58:44.000Z</time>
      </trkpt>
      <trkpt lat="39.706203" lon="-78.643648">
        <ele>364.164651</ele>
        <time>2026-07-12T09:58:46.000Z</time>
      </trkpt>
      <trkpt lat="39.705961" lon="-78.644385">
        <ele>366.48331</ele>
        <time>2026-07-12T09:58:53.000Z</time>
      </trkpt>
      <trkpt lat="39.705773" lon="-78.644779">
        <ele>367.221644</ele>
        <time>2026-07-12T09:58:57.000Z</time>
      </trkpt>
      <trkpt lat="39.705295" lon="-78.645367">
        <ele>368.613619</ele>
        <time>2026-07-12T09:59:04.000Z</time>
      </trkpt>
      <trkpt lat="39.705175" lon="-78.645611">
        <ele>369.052763</ele>
        <time>2026-07-12T09:59:06.000Z</time>
      </trkpt>
      <trkpt lat="39.704887" lon="-78.645927">
        <ele>369.851421</ele>
        <time>2026-07-12T09:59:10.000Z</time>
      </trkpt>
      <trkpt lat="39.704568" lon="-78.646344">
        <ele>370.143125</ele>
        <time>2026-07-12T09:59:15.000Z</time>
      </trkpt>
      <trkpt lat="39.704516" lon="-78.646533">
        <ele>370.131738</ele>
        <time>2026-07-12T09:59:17.000Z</time>
      </trkpt>
      <trkpt lat="39.704278" lon="-78.647036">
        <ele>370.099543</ele>
        <time>2026-07-12T09:59:22.000Z</time>
      </trkpt>
      <trkpt lat="39.704252" lon="-78.647215">
        <ele>370.089627</ele>
        <time>2026-07-12T09:59:24.000Z</time>
      </trkpt>
      <trkpt lat="39.704196" lon="-78.647387">
        <ele>370.078754</ele>
        <time>2026-07-12T09:59:26.000Z</time>
      </trkpt>
      <trkpt lat="39.704125" lon="-78.647769">
        <ele>370.057499</ele>
        <time>2026-07-12T09:59:29.000Z</time>
      </trkpt>
      <trkpt lat="39.704071" lon="-78.64795">
        <ele>370.046655</ele>
        <time>2026-07-12T09:59:31.000Z</time>
      </trkpt>
      <trkpt lat="39.703771" lon="-78.648533">
        <ele>368.8181</ele>
        <time>2026-07-12T09:59:37.000Z</time>
      </trkpt>
      <trkpt lat="39.703654" lon="-78.648824">
        <ele>367.996325</ele>
        <time>2026-07-12T09:59:40.000Z</time>
      </trkpt>
      <trkpt lat="39.703564" lon="-78.649025">
        <ele>367.386306</ele>
        <time>2026-07-12T09:59:42.000Z</time>
      </trkpt>
      <trkpt lat="39.703406" lon="-78.649228">
        <ele>366.689971</ele>
        <time>2026-07-12T09:59:44.000Z</time>
      </trkpt>
      <trkpt lat="39.703221" lon="-78.649545">
        <ele>365.716181</ele>
        <time>2026-07-12T09:59:47.000Z</time>
      </trkpt>
      <trkpt lat="39.703049" lon="-78.649649">
        <ele>365.076205</ele>
        <time>2026-07-12T09:59:49.000Z</time>
      </trkpt>
      <trkpt lat="39.702859" lon="-78.649716">
        <ele>364.466064</ele>
        <time>2026-07-12T09:59:51.000Z</time>
      </trkpt>
      <trkpt lat="39.702021" lon="-78.649795">
        <ele>362.722566</ele>
        <time>2026-07-12T10:00:00.000Z</time>
      </trkpt>
      <trkpt lat="39.70191" lon="-78.64976">
        <ele>362.494186</ele>
        <time>2026-07-12T10:00:01.000Z</time>
      </trkpt>
      <trkpt lat="39.701612" lon="-78.649519">
        <ele>361.836997</ele>
        <time>2026-07-12T10:00:05.000Z</time>
      </trkpt>
      <trkpt lat="39.701496" lon="-78.649482">
        <ele>361.610333</ele>
        <time>2026-07-12T10:00:06.000Z</time>
      </trkpt>
      <trkpt lat="39.701312" lon="-78.64925">
        <ele>361.105351</ele>
        <time>2026-07-12T10:00:09.000Z</time>
      </trkpt>
      <trkpt lat="39.701203" lon="-78.649061">
        <ele>360.750278</ele>
        <time>2026-07-12T10:00:11.000Z</time>
      </trkpt>
      <trkpt lat="39.701112" lon="-78.649085">
        <ele>360.768198</ele>
        <time>2026-07-12T10:00:12.000Z</time>
      </trkpt>
      <trkpt lat="39.700884" lon="-78.649192">
        <ele>360.882811</ele>
        <time>2026-07-12T10:00:15.000Z</time>
      </trkpt>
      <trkpt lat="39.700784" lon="-78.649324">
        <ele>360.950965</ele>
        <time>2026-07-12T10:00:17.000Z</time>
      </trkpt>
      <trkpt lat="39.700786" lon="-78.64941">
        <ele>360.983122</ele>
        <time>2026-07-12T10:00:18.000Z</time>
      </trkpt>
      <trkpt lat="39.700837" lon="-78.649646">
        <ele>361.07375</ele>
        <time>2026-07-12T10:00:20.000Z</time>
      </trkpt>
      <trkpt lat="39.70085" lon="-78.649925">
        <ele>361.175147</ele>
        <time>2026-07-12T10:00:22.000Z</time>
      </trkpt>
      <trkpt lat="39.700854" lon="-78.650371">
        <ele>361.336011</ele>
        <time>2026-07-12T10:00:26.000Z</time>
      </trkpt>
      <trkpt lat="39.700906" lon="-78.650745">
        <ele>361.474064</ele>
        <time>2026-07-12T10:00:29.000Z</time>
      </trkpt>
      <trkpt lat="39.701014" lon="-78.65101">
        <ele>361.583655391</ele>
        <time>2026-07-12T10:00:32.000Z</time>
      </trkpt>
      <trkpt lat="39.701064" lon="-78.651117">
        <ele>361.629405477</ele>
        <time>2026-07-12T10:00:33.000Z</time>
      </trkpt>
      <trkpt lat="39.701192" lon="-78.651269">
        <ele>361.711758405</ele>
        <time>2026-07-12T10:00:35.000Z</time>
      </trkpt>
      <trkpt lat="39.701647" lon="-78.651624">
        <ele>361.963825779</ele>
        <time>2026-07-12T10:00:41.000Z</time>
      </trkpt>
      <trkpt lat="39.701669" lon="-78.651792">
        <ele>362.026103483</ele>
        <time>2026-07-12T10:00:42.000Z</time>
      </trkpt>
      <trkpt lat="39.701675" lon="-78.651953">
        <ele>362.085009096</ele>
        <time>2026-07-12T10:00:43.000Z</time>
      </trkpt>
      <trkpt lat="39.70161" lon="-78.652311">
        <ele>362.219432025</ele>
        <time>2026-07-12T10:00:46.000Z</time>
      </trkpt>
      <trkpt lat="39.701487" lon="-78.652628">
        <ele>362.349176496</ele>
        <time>2026-07-12T10:00:49.000Z</time>
      </trkpt>
      <trkpt lat="39.701282" lon="-78.652852">
        <ele>362.476386477</ele>
        <time>2026-07-12T10:00:52.000Z</time>
      </trkpt>
      <trkpt lat="39.700674" lon="-78.653418">
        <ele>362.831611496</ele>
        <time>2026-07-12T10:01:00.000Z</time>
      </trkpt>
    </trkseg>
  </trk>
</gpx>

<!--
Performance optimized by W3 Total Cache. Learn more: https://www.boldgrid.com/w3-total-cache/?utm_source=w3tc&utm_medium=footer_comment&utm_campaign=free_plugin

Page Caching using Disk: Enhanced{w3tc_pagecache_reject_reason} 

Served from: www.aquabike.world @ 2026-05-10 17:31:15 by W3 Total Cache
-->